Observation data for Caprock Canyons on 07/04/2020      Previous  Date  Next       Current Mesonet Observations  Soil Data  Daily Summary Page  Observations in Plain Language
KQU1 040500Z 20005KT 26/15 A3006 RMK A01 T02600152  RH  052%=      5-min Rain = 0
KQU1 040501Z 20005KT 26/15 A3006 RMK A01 T02590153  RH  052%=      5-min Rain = 0
KQU1 040502Z 20005KT 26/15 A3006 RMK A01 T02590152  RH  052%=      5-min Rain = 0
KQU1 040503Z 20006KT 26/15 A3006 RMK A01 T02580152  RH  052%=      5-min Rain = 0
KQU1 040504Z 20005KT 26/15 A3006 RMK A01 T02580152  RH  052%=      5-min Rain = 0
KQU1 040505Z 20005KT 26/15 A3006 RMK A01 T02580152  RH  052%=      5-min Rain = 0
KQU1 040506Z 20006KT 26/15 A3006 RMK A01 T02580152  RH  052%=      5-min Rain = 0
KQU1 040507Z 20006KT 26/15 A3006 RMK A01 T02570153  RH  052%=      5-min Rain = 0
KQU1 040508Z 21006KT 26/15 A3006 RMK A01 T02570152  RH  052%=      5-min Rain = 0
KQU1 040509Z 20006KT 26/15 A3006 RMK A01 T02570153  RH  053%=      5-min Rain = 0
KQU1 040510Z 20006KT 26/15 A3006 RMK A01 T02560152  RH  053%=      5-min Rain = 0
KQU1 040511Z 21006KT 26/15 A3006 RMK A01 T02560152  RH  052%=      5-min Rain = 0
KQU1 040512Z 21006KT 26/15 A3006 RMK A01 T02560152  RH  052%=      5-min Rain = 0
KQU1 040513Z 21006KT 26/15 A3006 RMK A01 T02560152  RH  052%=      5-min Rain = 0
KQU1 040514Z 21006KT 26/15 A3006 RMK A01 T02560152  RH  052%=      5-min Rain = 0
KQU1 040515Z 21006KT 26/15 A3006 RMK A01 T02560152  RH  052%=      5-min Rain = 0
KQU1 040516Z 20006KT 26/15 A3006 RMK A01 T02560152  RH  052%=      5-min Rain = 0
KQU1 040517Z 20006KT 26/15 A3006 RMK A01 T02560152  RH  052%=      5-min Rain = 0
KQU1 040518Z 20006KT 26/15 A3006 RMK A01 T02560151  RH  052%=      5-min Rain = 0
KQU1 040519Z 20006KT 26/15 A3006 RMK A01 T02560151  RH  052%=      5-min Rain = 0
KQU1 040520Z 20006KT 26/15 A3006 RMK A01 T02560151  RH  052%=      5-min Rain = 0
KQU1 040521Z 20006KT 26/15 A3006 RMK A01 T02570150  RH  052%=      5-min Rain = 0
KQU1 040522Z 20005KT 26/15 A3006 RMK A01 T02570150  RH  052%=      5-min Rain = 0
KQU1 040523Z 20005KT 26/15 A3006 RMK A01 T02570150  RH  051%=      5-min Rain = 0
KQU1 040524Z 20005KT 26/15 A3006 RMK A01 T02570150  RH  051%=      5-min Rain = 0
KQU1 040525Z 20005KT 26/15 A3006 RMK A01 T02570150  RH  051%=      5-min Rain = 0
KQU1 040526Z 20005KT 26/15 A3006 RMK A01 T02570150  RH  051%=      5-min Rain = 0
KQU1 040527Z 20005KT 26/15 A3006 RMK A01 T02570150  RH  052%=      5-min Rain = 0
KQU1 040528Z 20005KT 26/15 A3006 RMK A01 T02560150  RH  052%=      5-min Rain = 0
KQU1 040529Z 20005KT 26/15 A3006 RMK A01 T02560150  RH  052%=      5-min Rain = 0
KQU1 040530Z 20005KT 26/15 A3006 RMK A01 T02560150  RH  052%=      5-min Rain = 0
KQU1 040531Z 20005KT 26/15 A3006 RMK A01 T02550150  RH  052%=      5-min Rain = 0
KQU1 040532Z 21005KT 26/15 A3006 RMK A01 T02550149  RH  052%=      5-min Rain = 0
KQU1 040533Z 20005KT 26/15 A3006 RMK A01 T02550149  RH  052%=      5-min Rain = 0
KQU1 040534Z 20005KT 26/15 A3006 RMK A01 T02550149  RH  052%=      5-min Rain = 0
KQU1 040535Z 21005KT 26/15 A3006 RMK A01 T02550149  RH  052%=      5-min Rain = 0
KQU1 040536Z 21005KT 26/15 A3006 RMK A01 T02550149  RH  052%=      5-min Rain = 0
KQU1 040537Z 21005KT 26/15 A3006 RMK A01 T02550149  RH  052%=      5-min Rain = 0
KQU1 040538Z 21005KT 25/15 A3006 RMK A01 T02540149  RH  052%=      5-min Rain = 0
KQU1 040539Z 21005KT 25/15 A3006 RMK A01 T02540149  RH  052%=      5-min Rain = 0
KQU1 040540Z 21005KT 25/15 A3006 RMK A01 T02530149  RH  052%=      5-min Rain = 0
KQU1 040541Z 21005KT 25/15 A3006 RMK A01 T02530149  RH  053%=      5-min Rain = 0
KQU1 040542Z 21004KT 25/15 A3006 RMK A01 T02520149  RH  053%=      5-min Rain = 0
KQU1 040543Z 21004KT 25/15 A3006 RMK A01 T02510149  RH  053%=      5-min Rain = 0
KQU1 040544Z 21004KT 25/15 A3006 RMK A01 T02510149  RH  053%=      5-min Rain = 0
KQU1 040545Z 21004KT 25/15 A3005 RMK A01 T02510148  RH  053%=      5-min Rain = 0
KQU1 040546Z 20004KT 25/15 A3005 RMK A01 T02510149  RH  053%=      5-min Rain = 0
KQU1 040547Z 20004KT 25/15 A3005 RMK A01 T02500149  RH  053%=      5-min Rain = 0
KQU1 040548Z 20004KT 25/15 A3005 RMK A01 T02500149  RH  053%=      5-min Rain = 0
KQU1 040549Z 20004KT 25/15 A3005 RMK A01 T02500149  RH  053%=      5-min Rain = 0
KQU1 040550Z 21005KT 25/15 A3005 RMK A01 T02500149  RH  054%=      5-min Rain = 0
KQU1 040551Z 21005KT 25/15 A3005 RMK A01 T02490149  RH  054%=      5-min Rain = 0
KQU1 040552Z 21005KT 25/15 A3005 RMK A01 T02490148  RH  054%=      5-min Rain = 0
KQU1 040553Z 21005KT 25/15 A3005 RMK A01 T02490148  RH  054%=      5-min Rain = 0
KQU1 040554Z 21005KT 25/15 A3005 RMK A01 T02490148  RH  054%=      5-min Rain = 0
KQU1 040555Z 21005KT 25/15 A3005 RMK A01 T02490148  RH  053%=      5-min Rain = 0
KQU1 040556Z 21005KT 25/15 A3005 RMK A01 T02490148  RH  053%=      5-min Rain = 0
KQU1 040557Z 21005KT 25/15 A3005 RMK A01 T02490148  RH  053%=      5-min Rain = 0
KQU1 040558Z 21006KT 25/15 A3005 RMK A01 T02490148  RH  053%=      5-min Rain = 0
KQU1 040559Z 21006KT 25/15 A3005 RMK A01 T02490148  RH  053%=      5-min Rain = 0
KQU1 040600Z 22006KT 25/15 A3005 RMK A01 T02490148  RH  053%=      5-min Rain = 0
KQU1 040601Z 22006KT 25/15 A3005 RMK A01 T02490147  RH  053%=      5-min Rain = 0
KQU1 040602Z 22007KT 25/15 A3005 RMK A01 T02490147  RH  053%=      5-min Rain = 0
KQU1 040603Z 22007KT 25/15 A3005 RMK A01 T02490147  RH  053%=      5-min Rain = 0
KQU1 040604Z 22007KT 25/15 A3005 RMK A01 T02500147  RH  053%=      5-min Rain = 0
KQU1 040605Z 22007KT 25/15 A3005 RMK A01 T02500146  RH  052%=      5-min Rain = 0
KQU1 040606Z 22007KT 25/15 A3005 RMK A01 T02500146  RH  052%=      5-min Rain = 0
KQU1 040607Z 22007KT 25/15 A3005 RMK A01 T02510146  RH  052%=      5-min Rain = 0
KQU1 040608Z 22007KT 25/15 A3005 RMK A01 T02510145  RH  052%=      5-min Rain = 0
KQU1 040609Z 22007KT 25/15 A3005 RMK A01 T02520145  RH  052%=      5-min Rain = 0
KQU1 040610Z 22007KT 25/15 A3005 RMK A01 T02520145  RH  051%=      5-min Rain = 0
KQU1 040611Z 22007KT 25/15 A3005 RMK A01 T02530145  RH  051%=      5-min Rain = 0
KQU1 040612Z 22007KT 25/15 A3005 RMK A01 T02530145  RH  051%=      5-min Rain = 0
KQU1 040613Z 22007KT 25/15 A3005 RMK A01 T02530145  RH  051%=      5-min Rain = 0
KQU1 040614Z 22008KT 25/14 A3005 RMK A01 T02540144  RH  051%=      5-min Rain = 0
KQU1 040615Z 22008KT 25/14 A3005 RMK A01 T02540144  RH  050%=      5-min Rain = 0
KQU1 040616Z 22008KT 26/14 A3005 RMK A01 T02550144  RH  050%=      5-min Rain = 0
KQU1 040617Z 22008KT 26/14 A3005 RMK A01 T02560144  RH  050%=      5-min Rain = 0
KQU1 040618Z 22008KT 26/14 A3005 RMK A01 T02560143  RH  050%=      5-min Rain = 0
KQU1 040619Z 22008KT 26/14 A3005 RMK A01 T02570143  RH  049%=      5-min Rain = 0
KQU1 040620Z 22008KT 26/14 A3005 RMK A01 T02580143  RH  049%=      5-min Rain = 0
KQU1 040621Z 22008KT 26/14 A3005 RMK A01 T02590143  RH  049%=      5-min Rain = 0
KQU1 040622Z 22008KT 26/14 A3005 RMK A01 T02590143  RH  049%=      5-min Rain = 0
KQU1 040623Z 22008KT 26/14 A3005 RMK A01 T02590143  RH  049%=      5-min Rain = 0
KQU1 040624Z 22008KT 26/14 A3005 RMK A01 T02600143  RH  048%=      5-min Rain = 0
KQU1 040625Z 22008KT 26/14 A3005 RMK A01 T02600143  RH  048%=      5-min Rain = 0
KQU1 040626Z 22008KT 26/14 A3005 RMK A01 T02600142  RH  048%=      5-min Rain = 0
KQU1 040627Z 22008KT 26/14 A3005 RMK A01 T02600142  RH  048%=      5-min Rain = 0
KQU1 040628Z 21008KT 26/14 A3005 RMK A01 T02600142  RH  048%=      5-min Rain = 0
KQU1 040629Z 21008KT 26/14 A3005 RMK A01 T02610142  RH  048%=      5-min Rain = 0
KQU1 040630Z 21007KT 26/14 A3005 RMK A01 T02610142  RH  048%=      5-min Rain = 0
KQU1 040631Z 21008KT 26/14 A3005 RMK A01 T02620141  RH  047%=      5-min Rain = 0
KQU1 040632Z 21007KT 26/14 A3005 RMK A01 T02620141  RH  047%=      5-min Rain = 0
KQU1 040633Z 21007KT 26/14 A3005 RMK A01 T02630141  RH  047%=      5-min Rain = 0
KQU1 040634Z 21008KT 26/14 A3005 RMK A01 T02630141  RH  047%=      5-min Rain = 0
KQU1 040635Z 21008KT 26/14 A3005 RMK A01 T02630141  RH  047%=      5-min Rain = 0
KQU1 040636Z 21008KT 26/14 A3004 RMK A01 T02640141  RH  047%=      5-min Rain = 0
KQU1 040637Z 21007KT 26/14 A3004 RMK A01 T02640141  RH  047%=      5-min Rain = 0
KQU1 040638Z 21008KT 26/14 A3004 RMK A01 T02640141  RH  047%=      5-min Rain = 0
KQU1 040639Z 21007KT 26/14 A3004 RMK A01 T02640141  RH  047%=      5-min Rain = 0
KQU1 040640Z 21007KT 26/14 A3004 RMK A01 T02630142  RH  047%=      5-min Rain = 0
KQU1 040641Z 21007KT 26/14 A3004 RMK A01 T02630142  RH  047%=      5-min Rain = 0
KQU1 040642Z 21008KT 26/14 A3004 RMK A01 T02620142  RH  047%=      5-min Rain = 0
KQU1 040643Z 21008KT 26/14 A3004 RMK A01 T02620142  RH  047%=      5-min Rain = 0
KQU1 040644Z 21007KT 26/14 A3004 RMK A01 T02620142  RH  048%=      5-min Rain = 0
KQU1 040645Z 21007KT 26/14 A3004 RMK A01 T02620142  RH  048%=      5-min Rain = 0
KQU1 040646Z 21007KT 26/14 A3004 RMK A01 T02620142  RH  048%=      5-min Rain = 0
KQU1 040647Z 21007KT 26/14 A3004 RMK A01 T02620142  RH  048%=      5-min Rain = 0
KQU1 040648Z 21007KT 26/14 A3004 RMK A01 T02620142  RH  048%=      5-min Rain = 0
KQU1 040649Z 21007KT 26/14 A3004 RMK A01 T02620142  RH  048%=      5-min Rain = 0
KQU1 040650Z 21007KT 26/14 A3004 RMK A01 T02620142  RH  048%=      5-min Rain = 0
KQU1 040651Z 21007KT 26/14 A3004 RMK A01 T02610143  RH  048%=      5-min Rain = 0
KQU1 040652Z 21007KT 26/14 A3004 RMK A01 T02610143  RH  048%=      5-min Rain = 0
KQU1 040653Z 21007KT 26/14 A3004 RMK A01 T02610143  RH  048%=      5-min Rain = 0
KQU1 040654Z 21007KT 26/14 A3004 RMK A01 T02610143  RH  048%=      5-min Rain = 0
KQU1 040655Z 21007KT 26/14 A3004 RMK A01 T02600144  RH  048%=      5-min Rain = 0
KQU1 040656Z 21007KT 26/14 A3004 RMK A01 T02600144  RH  049%=      5-min Rain = 0
KQU1 040657Z 21007KT 26/14 A3004 RMK A01 T02600144  RH  049%=      5-min Rain = 0
KQU1 040658Z 21007KT 26/14 A3004 RMK A01 T02600144  RH  049%=      5-min Rain = 0
KQU1 040659Z 21007KT 26/14 A3004 RMK A01 T02610144  RH  049%=      5-min Rain = 0
KQU1 040700Z 21007KT 26/14 A3004 RMK A01 T02610144  RH  049%=      5-min Rain = 0
KQU1 040701Z 21008KT 26/15 A3004 RMK A01 T02600145  RH  049%=      5-min Rain = 0
KQU1 040702Z 21008KT 26/15 A3004 RMK A01 T02600145  RH  049%=      5-min Rain = 0
KQU1 040703Z 21008KT 26/15 A3004 RMK A01 T02600145  RH  049%=      5-min Rain = 0
KQU1 040704Z 21008KT 26/15 A3004 RMK A01 T02600145  RH  049%=      5-min Rain = 0
KQU1 040705Z 21008KT 26/15 A3004 RMK A01 T02600145  RH  049%=      5-min Rain = 0
KQU1 040706Z 21008KT 26/15 A3004 RMK A01 T02600145  RH  049%=      5-min Rain = 0
KQU1 040707Z 21008KT 26/15 A3004 RMK A01 T02600145  RH  049%=      5-min Rain = 0
KQU1 040708Z 21008KT 26/15 A3004 RMK A01 T02600146  RH  049%=      5-min Rain = 0
KQU1 040709Z 21008KT 26/15 A3004 RMK A01 T02600145  RH  049%=      5-min Rain = 0
KQU1 040710Z 21008KT 26/15 A3004 RMK A01 T02600146  RH  049%=      5-min Rain = 0
KQU1 040711Z 21007KT 26/15 A3004 RMK A01 T02610145  RH  049%=      5-min Rain = 0
KQU1 040712Z 21007KT 26/15 A3004 RMK A01 T02610145  RH  049%=      5-min Rain = 0
KQU1 040713Z 21007KT 26/15 A3004 RMK A01 T02610145  RH  049%=      5-min Rain = 0
KQU1 040714Z 20007KT 26/15 A3004 RMK A01 T02610146  RH  049%=      5-min Rain = 0
KQU1 040715Z 21007KT 26/15 A3004 RMK A01 T02610146  RH  049%=      5-min Rain = 0
KQU1 040716Z 20007KT 26/15 A3004 RMK A01 T02610146  RH  049%=      5-min Rain = 0
KQU1 040717Z 20007KT 26/15 A3004 RMK A01 T02610146  RH  049%=      5-min Rain = 0
KQU1 040718Z 20007KT 26/15 A3004 RMK A01 T02600146  RH  049%=      5-min Rain = 0
KQU1 040719Z 20007KT 26/15 A3004 RMK A01 T02600146  RH  049%=      5-min Rain = 0
KQU1 040720Z 21006KT 26/15 A3004 RMK A01 T02600146  RH  049%=      5-min Rain = 0
KQU1 040721Z 21006KT 26/15 A3004 RMK A01 T02600146  RH  049%=      5-min Rain = 0
KQU1 040722Z 21007KT 26/15 A3004 RMK A01 T02600146  RH  050%=      5-min Rain = 0
KQU1 040723Z 21006KT 26/15 A3004 RMK A01 T02590147  RH  050%=      5-min Rain = 0
KQU1 040724Z 21006KT 26/15 A3004 RMK A01 T02580147  RH  050%=      5-min Rain = 0
KQU1 040725Z 21007KT 26/15 A3004 RMK A01 T02570147  RH  051%=      5-min Rain = 0
KQU1 040726Z 21007KT 26/15 A3004 RMK A01 T02560148  RH  051%=      5-min Rain = 0
KQU1 040727Z 21007KT 26/15 A3004 RMK A01 T02560147  RH  051%=      5-min Rain = 0
KQU1 040728Z 21006KT 26/15 A3004 RMK A01 T02560147  RH  051%=      5-min Rain = 0
KQU1 040729Z 20006KT 26/15 A3004 RMK A01 T02560147  RH  051%=      5-min Rain = 0
KQU1 040730Z 21006KT 26/15 A3004 RMK A01 T02560147  RH  051%=      5-min Rain = 0
KQU1 040731Z 20006KT 26/15 A3004 RMK A01 T02560147  RH  051%=      5-min Rain = 0
KQU1 040732Z 21006KT 26/15 A3004 RMK A01 T02560148  RH  051%=      5-min Rain = 0
KQU1 040733Z 21007KT 26/15 A3004 RMK A01 T02560148  RH  051%=      5-min Rain = 0
KQU1 040734Z 21007KT 26/15 A3004 RMK A01 T02560148  RH  051%=      5-min Rain = 0
KQU1 040735Z 21007KT 26/15 A3004 RMK A01 T02550148  RH  052%=      5-min Rain = 0
KQU1 040736Z 21007KT 26/15 A3004 RMK A01 T02550149  RH  052%=      5-min Rain = 0
KQU1 040737Z 21006KT 25/15 A3004 RMK A01 T02540149  RH  052%=      5-min Rain = 0
KQU1 040738Z 21006KT 25/15 A3004 RMK A01 T02540149  RH  052%=      5-min Rain = 0
KQU1 040739Z 21007KT 25/15 A3004 RMK A01 T02540149  RH  052%=      5-min Rain = 0
KQU1 040740Z 21007KT 25/15 A3004 RMK A01 T02530150  RH  053%=      5-min Rain = 0
KQU1 040741Z 21007KT 25/15 A3004 RMK A01 T02530150  RH  053%=      5-min Rain = 0
KQU1 040742Z 21007KT 25/15 A3004 RMK A01 T02520150  RH  053%=      5-min Rain = 0
KQU1 040743Z 21007KT 25/15 A3003 RMK A01 T02520150  RH  053%=      5-min Rain = 0
KQU1 040744Z 21007KT 25/15 A3003 RMK A01 T02520150  RH  053%=      5-min Rain = 0
KQU1 040745Z 21007KT 25/15 A3003 RMK A01 T02520150  RH  053%=      5-min Rain = 0
KQU1 040746Z 20007KT 25/15 A3003 RMK A01 T02520150  RH  053%=      5-min Rain = 0
KQU1 040747Z 20007KT 25/15 A3003 RMK A01 T02530150  RH  053%=      5-min Rain = 0
KQU1 040748Z 20007KT 25/15 A3003 RMK A01 T02530150  RH  053%=      5-min Rain = 0
KQU1 040749Z 20007KT 25/15 A3003 RMK A01 T02540150  RH  052%=      5-min Rain = 0
KQU1 040750Z 20007KT 25/15 A3003 RMK A01 T02540150  RH  052%=      5-min Rain = 0
KQU1 040751Z 20007KT 26/15 A3003 RMK A01 T02550150  RH  052%=      5-min Rain = 0
KQU1 040752Z 20007KT 26/15 A3003 RMK A01 T02550150  RH  052%=      5-min Rain = 0
KQU1 040753Z 21007KT 26/15 A3003 RMK A01 T02550150  RH  052%=      5-min Rain = 0
KQU1 040754Z 21007KT 26/15 A3003 RMK A01 T02550150  RH  052%=      5-min Rain = 0
KQU1 040755Z 21008KT 26/15 A3003 RMK A01 T02550150  RH  052%=      5-min Rain = 0
KQU1 040756Z 21008KT 25/15 A3003 RMK A01 T02540151  RH  053%=      5-min Rain = 0
KQU1 040757Z 21008KT 25/15 A3003 RMK A01 T02540151  RH  053%=      5-min Rain = 0
KQU1 040758Z 21008KT 25/15 A3003 RMK A01 T02530151  RH  053%=      5-min Rain = 0
KQU1 040759Z 21008KT 25/15 A3003 RMK A01 T02530151  RH  053%=      5-min Rain = 0
KQU1 040800Z 21008KT 25/15 A3003 RMK A01 T02530151  RH  053%=      5-min Rain = 0
KQU1 040801Z 21008KT 25/15 A3003 RMK A01 T02530151  RH  053%=      5-min Rain = 0
KQU1 040802Z 21008KT 25/15 A3003 RMK A01 T02540151  RH  053%=      5-min Rain = 0
KQU1 040803Z 21008KT 25/15 A3003 RMK A01 T02540151  RH  053%=      5-min Rain = 0
KQU1 040804Z 21007KT 25/15 A3004 RMK A01 T02540151  RH  053%=      5-min Rain = 0
KQU1 040805Z 21007KT 25/15 A3004 RMK A01 T02540152  RH  053%=      5-min Rain = 0
KQU1 040806Z 21007KT 25/15 A3004 RMK A01 T02540152  RH  053%=      5-min Rain = 0
KQU1 040807Z 21007KT 26/15 A3004 RMK A01 T02550152  RH  053%=      5-min Rain = 0
KQU1 040808Z 21007KT 26/15 A3004 RMK A01 T02550152  RH  053%=      5-min Rain = 0
KQU1 040809Z 21007KT 26/15 A3004 RMK A01 T02550152  RH  053%=      5-min Rain = 0
KQU1 040810Z 20007KT 26/15 A3004 RMK A01 T02550152  RH  053%=      5-min Rain = 0
KQU1 040811Z 20007KT 26/15 A3004 RMK A01 T02550152  RH  053%=      5-min Rain = 0
KQU1 040812Z 20007KT 26/15 A3004 RMK A01 T02550152  RH  053%=      5-min Rain = 0
KQU1 040813Z 20007KT 26/15 A3004 RMK A01 T02550152  RH  053%=      5-min Rain = 0
KQU1 040814Z 20007KT 26/15 A3004 RMK A01 T02550152  RH  053%=      5-min Rain = 0
KQU1 040815Z 20007KT 26/15 A3004 RMK A01 T02550152  RH  053%=      5-min Rain = 0
KQU1 040816Z 20007KT 25/15 A3004 RMK A01 T02540153  RH  053%=      5-min Rain = 0
KQU1 040817Z 20007KT 25/15 A3004 RMK A01 T02540153  RH  053%=      5-min Rain = 0
KQU1 040818Z 20007KT 25/15 A3004 RMK A01 T02540153  RH  054%=      5-min Rain = 0
KQU1 040819Z 20007KT 25/15 A3004 RMK A01 T02540153  RH  054%=      5-min Rain = 0
KQU1 040820Z 20007KT 25/15 A3004 RMK A01 T02540153  RH  054%=      5-min Rain = 0
KQU1 040821Z 20007KT 25/15 A3004 RMK A01 T02540153  RH  054%=      5-min Rain = 0
KQU1 040822Z 20007KT 25/15 A3004 RMK A01 T02540154  RH  054%=      5-min Rain = 0
KQU1 040823Z 20007KT 25/15 A3004 RMK A01 T02530154  RH  054%=      5-min Rain = 0
KQU1 040824Z 20007KT 25/15 A3004 RMK A01 T02530154  RH  054%=      5-min Rain = 0
KQU1 040825Z 20007KT 25/15 A3004 RMK A01 T02530154  RH  054%=      5-min Rain = 0
KQU1 040826Z 20007KT 25/15 A3004 RMK A01 T02520154  RH  054%=      5-min Rain = 0
KQU1 040827Z 21007KT 25/15 A3004 RMK A01 T02520154  RH  055%=      5-min Rain = 0
KQU1 040828Z 21006KT 25/16 A3004 RMK A01 T02520155  RH  055%=      5-min Rain = 0
KQU1 040829Z 21007KT 25/16 A3004 RMK A01 T02510155  RH  055%=      5-min Rain = 0
KQU1 040830Z 21007KT 25/16 A3004 RMK A01 T02510155  RH  055%=      5-min Rain = 0
KQU1 040831Z 21007KT 25/16 A3004 RMK A01 T02500156  RH  056%=      5-min Rain = 0
KQU1 040832Z 21007KT 25/16 A3003 RMK A01 T02490156  RH  056%=      5-min Rain = 0
KQU1 040833Z 22007KT 25/16 A3003 RMK A01 T02480156  RH  057%=      5-min Rain = 0
KQU1 040834Z 22007KT 25/16 A3003 RMK A01 T02470156  RH  057%=      5-min Rain = 0
KQU1 040835Z 22007KT 25/16 A3004 RMK A01 T02460156  RH  057%=      5-min Rain = 0
KQU1 040836Z 22007KT 25/16 A3004 RMK A01 T02460157  RH  058%=      5-min Rain = 0
KQU1 040837Z 22006KT 25/16 A3004 RMK A01 T02450157  RH  058%=      5-min Rain = 0
KQU1 040838Z 22006KT 24/16 A3004 RMK A01 T02440157  RH  058%=      5-min Rain = 0
KQU1 040839Z 22006KT 24/16 A3004 RMK A01 T02440157  RH  058%=      5-min Rain = 0
KQU1 040840Z 22006KT 24/16 A3004 RMK A01 T02440157  RH  058%=      5-min Rain = 0
KQU1 040841Z 22006KT 24/16 A3004 RMK A01 T02430157  RH  058%=      5-min Rain = 0
KQU1 040842Z 22006KT 24/16 A3004 RMK A01 T02430157  RH  058%=      5-min Rain = 0
KQU1 040843Z 23006KT 24/16 A3004 RMK A01 T02430157  RH  058%=      5-min Rain = 0
KQU1 040844Z 23006KT 24/16 A3004 RMK A01 T02430157  RH  059%=      5-min Rain = 0
KQU1 040845Z 23006KT 24/16 A3004 RMK A01 T02430157  RH  059%=      5-min Rain = 0
KQU1 040846Z 23006KT 24/16 A3004 RMK A01 T02430157  RH  059%=      5-min Rain = 0
KQU1 040847Z 23005KT 24/16 A3004 RMK A01 T02430157  RH  059%=      5-min Rain = 0
KQU1 040848Z 23005KT 24/16 A3004 RMK A01 T02430157  RH  059%=      5-min Rain = 0
KQU1 040849Z 23005KT 24/16 A3004 RMK A01 T02430157  RH  059%=      5-min Rain = 0
KQU1 040850Z 24005KT 24/16 A3004 RMK A01 T02420157  RH  059%=      5-min Rain = 0
KQU1 040851Z 24005KT 24/16 A3004 RMK A01 T02420158  RH  059%=      5-min Rain = 0
KQU1 040852Z 24004KT 24/16 A3004 RMK A01 T02410158  RH  060%=      5-min Rain = 0
KQU1 040853Z 25004KT 24/16 A3004 RMK A01 T02400158  RH  060%=      5-min Rain = 0
KQU1 040854Z 27004KT 24/16 A3004 RMK A01 T02400158  RH  060%=      5-min Rain = 0
KQU1 040855Z 30004KT 24/16 A3004 RMK A01 T02400158  RH  060%=      5-min Rain = 0
KQU1 040856Z 32004KT 24/16 A3004 RMK A01 T02410160  RH  060%=      5-min Rain = 0
KQU1 040857Z 32006KT 24/16 A3004 RMK A01 T02420160  RH  060%=      5-min Rain = 0
KQU1 040858Z 33006KT 24/16 A3004 RMK A01 T02420159  RH  060%=      5-min Rain = 0
KQU1 040859Z 33007KT 24/16 A3004 RMK A01 T02420158  RH  059%=      5-min Rain = 0
KQU1 040900Z 33006KT 24/16 A3005 RMK A01 T02430157  RH  059%=      5-min Rain = 0
KQU1 040901Z 34005KT 25/16 A3005 RMK A01 T02450157  RH  058%=      5-min Rain = 0
KQU1 040902Z 35005KT 25/16 A3005 RMK A01 T02470157  RH  057%=      5-min Rain = 0
KQU1 040903Z 34005KT 25/16 A3005 RMK A01 T02480157  RH  057%=      5-min Rain = 0
KQU1 040904Z 34004KT 25/16 A3005 RMK A01 T02480157  RH  057%=      5-min Rain = 0
KQU1 040905Z 33004KT 25/16 A3005 RMK A01 T02490157  RH  057%=      5-min Rain = 0
KQU1 040906Z 33004KT 25/16 A3005 RMK A01 T02490157  RH  057%=      5-min Rain = 0
KQU1 040907Z 33004KT 25/16 A3005 RMK A01 T02480157  RH  057%=      5-min Rain = 0
KQU1 040908Z 31004KT 25/16 A3005 RMK A01 T02480158  RH  057%=      5-min Rain = 0
KQU1 040909Z 32004KT 25/16 A3005 RMK A01 T02470158  RH  058%=      5-min Rain = 0
KQU1 040910Z 32004KT 25/16 A3005 RMK A01 T02470158  RH  058%=      5-min Rain = 0
KQU1 040911Z 32004KT 25/16 A3005 RMK A01 T02480158  RH  057%=      5-min Rain = 0
KQU1 040912Z 31004KT 25/16 A3005 RMK A01 T02480158  RH  057%=      5-min Rain = 0
KQU1 040913Z 31005KT 25/16 A3005 RMK A01 T02480158  RH  057%=      5-min Rain = 0
KQU1 040914Z 30005KT 25/16 A3005 RMK A01 T02480158  RH  057%=      5-min Rain = 0
KQU1 040915Z 30005KT 25/16 A3005 RMK A01 T02470158  RH  058%=      5-min Rain = 0
KQU1 040916Z 30004KT 25/16 A3005 RMK A01 T02460158  RH  058%=      5-min Rain = 0
KQU1 040917Z 31005KT 25/16 A3005 RMK A01 T02460157  RH  058%=      5-min Rain = 0
KQU1 040918Z 32004KT 25/16 A3005 RMK A01 T02460156  RH  057%=      5-min Rain = 0
KQU1 040919Z 32004KT 25/16 A3005 RMK A01 T02460157  RH  057%=      5-min Rain = 0
KQU1 040920Z 33004KT 25/16 A3005 RMK A01 T02460157  RH  057%=      5-min Rain = 0
KQU1 040921Z 32004KT 25/16 A3005 RMK A01 T02460157  RH  058%=      5-min Rain = 0
KQU1 040922Z 34003KT 25/16 A3006 RMK A01 T02470163  RH  060%=      5-min Rain = 0
KQU1 040923Z 35003KT 25/17 A3006 RMK A01 T02460168  RH  061%=      5-min Rain = 0
KQU1 040924Z 35004KT 25/17 A3006 RMK A01 T02460167  RH  061%=      5-min Rain = 0
KQU1 040925Z 35004KT 25/17 A3006 RMK A01 T02460166  RH  061%=      5-min Rain = 0
KQU1 040926Z 34005KT 25/16 A3006 RMK A01 T02450164  RH  061%=      5-min Rain = 0
KQU1 040927Z 32006KT 25/16 A3006 RMK A01 T02460159  RH  058%=      5-min Rain = 0
KQU1 040928Z 32006KT 25/16 A3006 RMK A01 T02470155  RH  056%=      5-min Rain = 0
KQU1 040929Z 32007KT 25/15 A3006 RMK A01 T02490154  RH  056%=      5-min Rain = 0
KQU1 040930Z 32006KT 25/15 A3006 RMK A01 T02490154  RH  055%=      5-min Rain = 0
KQU1 040931Z 32006KT 25/15 A3006 RMK A01 T02500154  RH  055%=      5-min Rain = 0
KQU1 040932Z 31006KT 25/15 A3006 RMK A01 T02490154  RH  056%=      5-min Rain = 0
KQU1 040933Z 31006KT 25/15 A3006 RMK A01 T02480154  RH  056%=      5-min Rain = 0
KQU1 040934Z 31006KT 25/15 A3006 RMK A01 T02470154  RH  056%=      5-min Rain = 0
KQU1 040935Z 31005KT 25/15 A3006 RMK A01 T02470154  RH  056%=      5-min Rain = 0
KQU1 040936Z 32005KT 25/15 A3006 RMK A01 T02470154  RH  056%=      5-min Rain = 0
KQU1 040937Z 33004KT 25/15 A3006 RMK A01 T02470154  RH  056%=      5-min Rain = 0
KQU1 040938Z 33003KT 25/15 A3006 RMK A01 T02470154  RH  056%=      5-min Rain = 0
KQU1 040939Z 33003KT 25/15 A3006 RMK A01 T02470154  RH  056%=      5-min Rain = 0
KQU1 040940Z 34002KT 25/16 A3006 RMK A01 T02470155  RH  057%=      5-min Rain = 0
KQU1 040941Z 32002KT 25/16 A3006 RMK A01 T02460155  RH  057%=      5-min Rain = 0
KQU1 040942Z 32004KT 25/16 A3006 RMK A01 T02460157  RH  058%=      5-min Rain = 0
KQU1 040943Z 32002KT 25/15 A3006 RMK A01 T02460154  RH  056%=      5-min Rain = 0
KQU1 040944Z 31003KT 25/15 A3006 RMK A01 T02470154  RH  056%=      5-min Rain = 0
KQU1 040945Z 28004KT 25/16 A3006 RMK A01 T02460155  RH  057%=      5-min Rain = 0
KQU1 040946Z 28004KT 25/16 A3006 RMK A01 T02450155  RH  057%=      5-min Rain = 0
KQU1 040947Z 28004KT 24/15 A3006 RMK A01 T02440154  RH  057%=      5-min Rain = 0
KQU1 040948Z 28004KT 24/15 A3006 RMK A01 T02440154  RH  057%=      5-min Rain = 0
KQU1 040949Z 28005KT 24/16 A3006 RMK A01 T02440155  RH  058%=      5-min Rain = 0
KQU1 040950Z 28004KT 24/16 A3006 RMK A01 T02430155  RH  058%=      5-min Rain = 0
KQU1 040951Z 27005KT 24/16 A3006 RMK A01 T02420155  RH  058%=      5-min Rain = 0
KQU1 040952Z 27005KT 24/15 A3006 RMK A01 T02420154  RH  058%=      5-min Rain = 0
KQU1 040953Z 28004KT 24/15 A3006 RMK A01 T02420153  RH  058%=      5-min Rain = 0
KQU1 040954Z 28003KT 24/15 A3006 RMK A01 T02420153  RH  057%=      5-min Rain = 0
KQU1 040955Z 27005KT 24/15 A3006 RMK A01 T02420153  RH  057%=      5-min Rain = 0
KQU1 040956Z 27005KT 24/15 A3006 RMK A01 T02420153  RH  057%=      5-min Rain = 0
KQU1 040957Z 28005KT 24/15 A3006 RMK A01 T02420153  RH  057%=      5-min Rain = 0
KQU1 040958Z 28004KT 24/15 A3006 RMK A01 T02420153  RH  058%=      5-min Rain = 0
KQU1 040959Z 27005KT 24/15 A3006 RMK A01 T02420153  RH  058%=      5-min Rain = 0
KQU1 041000Z 27006KT 24/15 A3006 RMK A01 T02420152  RH  057%=      5-min Rain = 0
KQU1 041001Z 28007KT 24/15 A3006 RMK A01 T02420152  RH  057%=      5-min Rain = 0
KQU1 041002Z 28007KT 24/15 A3006 RMK A01 T02440151  RH  056%=      5-min Rain = 0
KQU1 041003Z 29007KT 25/15 A3006 RMK A01 T02460151  RH  055%=      5-min Rain = 0
KQU1 041004Z 30007KT 25/15 A3006 RMK A01 T02470151  RH  055%=      5-min Rain = 0
KQU1 041005Z 30005KT 25/15 A3006 RMK A01 T02480151  RH  055%=      5-min Rain = 0
KQU1 041006Z 31005KT 25/15 A3006 RMK A01 T02480152  RH  055%=      5-min Rain = 0
KQU1 041007Z 31004KT 25/16 A3006 RMK A01 T02480155  RH  056%=      5-min Rain = 0
KQU1 041008Z 32004KT 25/16 A3006 RMK A01 T02470158  RH  058%=      5-min Rain = 0
KQU1 041009Z 31004KT 25/16 A3006 RMK A01 T02460156  RH  057%=      5-min Rain = 0
KQU1 041010Z 31003KT 25/16 A3006 RMK A01 T02450155  RH  057%=      5-min Rain = 0
KQU1 041011Z 34002KT 25/16 A3006 RMK A01 T02450155  RH  057%=      5-min Rain = 0
KQU1 041012Z 02002KT 25/16 A3006 RMK A01 T02450160  RH  059%=      5-min Rain = 0
KQU1 041013Z 36002KT 24/16 A3006 RMK A01 T02440164  RH  061%=      5-min Rain = 0
KQU1 041014Z 35003KT 24/17 A3006 RMK A01 T02430166  RH  062%=      5-min Rain = 0
KQU1 041015Z 34003KT 24/16 A3006 RMK A01 T02420160  RH  060%=      5-min Rain = 0
KQU1 041016Z 32003KT 24/16 A3006 RMK A01 T02420155  RH  058%=      5-min Rain = 0
KQU1 041017Z 31004KT 24/16 A3006 RMK A01 T02420155  RH  058%=      5-min Rain = 0
KQU1 041018Z 31005KT 24/16 A3006 RMK A01 T02420155  RH  058%=      5-min Rain = 0
KQU1 041019Z 30005KT 24/16 A3006 RMK A01 T02420156  RH  059%=      5-min Rain = 0
KQU1 041020Z 30004KT 24/16 A3006 RMK A01 T02410155  RH  059%=      5-min Rain = 0
KQU1 041021Z 30005KT 24/15 A3006 RMK A01 T02410154  RH  058%=      5-min Rain = 0
KQU1 041022Z 30004KT 24/15 A3006 RMK A01 T02420153  RH  058%=      5-min Rain = 0
KQU1 041023Z 30004KT 24/15 A3006 RMK A01 T02430153  RH  057%=      5-min Rain = 0
KQU1 041024Z 30004KT 24/15 A3006 RMK A01 T02430153  RH  057%=      5-min Rain = 0
KQU1 041025Z 30003KT 24/15 A3006 RMK A01 T02440153  RH  057%=      5-min Rain = 0
KQU1 041026Z 30003KT 24/15 A3006 RMK A01 T02440152  RH  056%=      5-min Rain = 0
KQU1 041027Z 32004KT 25/15 A3005 RMK A01 T02450151  RH  056%=      5-min Rain = 0
KQU1 041028Z 33004KT 25/15 A3005 RMK A01 T02450152  RH  056%=      5-min Rain = 0
KQU1 041029Z 33004KT 25/16 A3005 RMK A01 T02450155  RH  057%=      5-min Rain = 0
KQU1 041030Z 33004KT 24/15 A3005 RMK A01 T02440152  RH  056%=      5-min Rain = 0
KQU1 041031Z 33003KT 25/15 A3005 RMK A01 T02450151  RH  056%=      5-min Rain = 0
KQU1 041032Z 33003KT 25/15 A3005 RMK A01 T02460150  RH  055%=      5-min Rain = 0
KQU1 041033Z 34003KT 25/15 A3005 RMK A01 T02450152  RH  056%=      5-min Rain = 0
KQU1 041034Z 00003KT 25/16 A3005 RMK A01 T02450160  RH  059%=      5-min Rain = 0
KQU1 041035Z 01003KT 24/16 A3005 RMK A01 T02440162  RH  060%=      5-min Rain = 0
KQU1 041036Z 03003KT 24/16 A3005 RMK A01 T02430161  RH  060%=      5-min Rain = 0
KQU1 041037Z 04003KT 24/16 A3005 RMK A01 T02430162  RH  061%=      5-min Rain = 0
KQU1 041038Z 04002KT 24/16 A3005 RMK A01 T02420161  RH  060%=      5-min Rain = 0
KQU1 041039Z 03000KT 24/16 A3005 RMK A01 T02420163  RH  061%=      5-min Rain = 0
KQU1 041040Z 02002KT 24/16 A3005 RMK A01 T02410163  RH  062%=      5-min Rain = 0
KQU1 041041Z 00001KT 24/16 A3005 RMK A01 T02410162  RH  061%=      5-min Rain = 0
KQU1 041042Z 03002KT 24/16 A3005 RMK A01 T02410161  RH  061%=      5-min Rain = 0
KQU1 041043Z 32000KT 24/16 A3005 RMK A01 T02410160  RH  060%=      5-min Rain = 0
KQU1 041044Z 33002KT 24/16 A3005 RMK A01 T02410157  RH  059%=      5-min Rain = 0
KQU1 041045Z 34002KT 24/16 A3005 RMK A01 T02410157  RH  059%=      5-min Rain = 0
KQU1 041046Z 33003KT 24/16 A3005 RMK A01 T02410155  RH  059%=      5-min Rain = 0
KQU1 041047Z 31004KT 24/15 A3005 RMK A01 T02390154  RH  059%=      5-min Rain = 0
KQU1 041048Z 31004KT 24/15 A3005 RMK A01 T02370154  RH  059%=      5-min Rain = 0
KQU1 041049Z 31004KT 24/16 A3005 RMK A01 T02360155  RH  060%=      5-min Rain = 0
KQU1 041050Z 32004KT 24/16 A3005 RMK A01 T02360155  RH  061%=      5-min Rain = 0
KQU1 041051Z 32003KT 24/16 A3005 RMK A01 T02360155  RH  061%=      5-min Rain = 0
KQU1 041052Z 31002KT 24/16 A3005 RMK A01 T02360155  RH  061%=      5-min Rain = 0
KQU1 041053Z 32002KT 24/16 A3005 RMK A01 T02350155  RH  061%=      5-min Rain = 0
KQU1 041054Z 30002KT 24/16 A3005 RMK A01 T02350155  RH  061%=      5-min Rain = 0
KQU1 041055Z 27001KT 24/16 A3005 RMK A01 T02350156  RH  061%=      5-min Rain = 0
KQU1 041056Z 00000KT 24/16 A3005 RMK A01 T02350156  RH  061%=      5-min Rain = 0
KQU1 041057Z 00000KT 24/16 A3005 RMK A01 T02350156  RH  061%=      5-min Rain = 0
KQU1 041058Z 04002KT 23/16 A3005 RMK A01 T02340156  RH  061%=      5-min Rain = 0
KQU1 041059Z 04004KT 24/16 A3005 RMK A01 T02350156  RH  061%=      5-min Rain = 0
KQU1 041100Z 03004KT 24/16 A3006 RMK A01 T02360160  RH  062%=      5-min Rain = 0
KQU1 041101Z 01003KT 24/16 A3006 RMK A01 T02370163  RH  064%=      5-min Rain = 0
KQU1 041102Z 00003KT 24/16 A3006 RMK A01 T02370162  RH  063%=      5-min Rain = 0
KQU1 041103Z 01004KT 24/16 A3006 RMK A01 T02370163  RH  063%=      5-min Rain = 0
KQU1 041104Z 01004KT 24/16 A3006 RMK A01 T02370162  RH  063%=      5-min Rain = 0
KQU1 041105Z 01004KT 24/16 A3006 RMK A01 T02380162  RH  062%=      5-min Rain = 0
KQU1 041106Z 01005KT 24/16 A3006 RMK A01 T02380161  RH  062%=      5-min Rain = 0
KQU1 041107Z 00005KT 24/16 A3006 RMK A01 T02390161  RH  062%=      5-min Rain = 0
KQU1 041108Z 01004KT 24/16 A3006 RMK A01 T02400161  RH  061%=      5-min Rain = 0
KQU1 041109Z 00006KT 24/16 A3006 RMK A01 T02400161  RH  061%=      5-min Rain = 0
KQU1 041110Z 35005KT 24/16 A3006 RMK A01 T02410161  RH  061%=      5-min Rain = 0
KQU1 041111Z 35007KT 24/16 A3006 RMK A01 T02420160  RH  060%=      5-min Rain = 0
KQU1 041112Z 36006KT 24/16 A3006 RMK A01 T02420159  RH  060%=      5-min Rain = 0
KQU1 041113Z 00005KT 24/16 A3005 RMK A01 T02420160  RH  060%=      5-min Rain = 0
KQU1 041114Z 36004KT 24/16 A3005 RMK A01 T02420161  RH  060%=      5-min Rain = 0
KQU1 041115Z 00003KT 24/16 A3005 RMK A01 T02420161  RH  061%=      5-min Rain = 0
KQU1 041116Z 35003KT 24/16 A3005 RMK A01 T02420161  RH  061%=      5-min Rain = 0
KQU1 041117Z 00003KT 24/16 A3005 RMK A01 T02420162  RH  061%=      5-min Rain = 0
KQU1 041118Z 34004KT 24/16 A3005 RMK A01 T02420161  RH  060%=      5-min Rain = 0
KQU1 041119Z 34005KT 24/16 A3005 RMK A01 T02420161  RH  060%=      5-min Rain = 0
KQU1 041120Z 35005KT 24/16 A3005 RMK A01 T02420160  RH  060%=      5-min Rain = 0
KQU1 041121Z 35005KT 24/16 A3006 RMK A01 T02420160  RH  060%=      5-min Rain = 0
KQU1 041122Z 35004KT 24/16 A3006 RMK A01 T02420160  RH  060%=      5-min Rain = 0
KQU1 041123Z 35003KT 24/16 A3006 RMK A01 T02420160  RH  060%=      5-min Rain = 0
KQU1 041124Z 35003KT 24/16 A3006 RMK A01 T02420161  RH  060%=      5-min Rain = 0
KQU1 041125Z 35004KT 24/16 A3006 RMK A01 T02420160  RH  060%=      5-min Rain = 0
KQU1 041126Z 35003KT 24/16 A3006 RMK A01 T02420160  RH  060%=      5-min Rain = 0
KQU1 041127Z 35004KT 24/16 A3006 RMK A01 T02420161  RH  060%=      5-min Rain = 0
KQU1 041128Z 36004KT 24/16 A3006 RMK A01 T02420161  RH  060%=      5-min Rain = 0
KQU1 041129Z 36003KT 24/16 A3006 RMK A01 T02420161  RH  060%=      5-min Rain = 0
KQU1 041130Z 35002KT 24/16 A3006 RMK A01 T02420161  RH  060%=      5-min Rain = 0
KQU1 041131Z 34003KT 24/16 A3005 RMK A01 T02420161  RH  060%=      5-min Rain = 0
KQU1 041132Z 34003KT 24/16 A3005 RMK A01 T02430160  RH  060%=      5-min Rain = 0
KQU1 041133Z 32002KT 24/16 A3005 RMK A01 T02420159  RH  060%=      5-min Rain = 0
KQU1 041134Z 32002KT 24/16 A3005 RMK A01 T02410159  RH  060%=      5-min Rain = 0
KQU1 041135Z 30003KT 24/16 A3005 RMK A01 T02410159  RH  060%=      5-min Rain = 0
KQU1 041136Z 30003KT 24/16 A3005 RMK A01 T02390160  RH  061%=      5-min Rain = 0
KQU1 041137Z 30003KT 24/16 A3005 RMK A01 T02380161  RH  062%=      5-min Rain = 0
KQU1 041138Z 31004KT 24/16 A3005 RMK A01 T02370161  RH  062%=      5-min Rain = 0
KQU1 041139Z 31003KT 24/16 A3005 RMK A01 T02370161  RH  063%=      5-min Rain = 0
KQU1 041140Z 31003KT 24/16 A3005 RMK A01 T02360161  RH  063%=      5-min Rain = 0
KQU1 041141Z 30003KT 24/16 A3005 RMK A01 T02360161  RH  063%=      5-min Rain = 0
KQU1 041142Z 28003KT 24/16 A3005 RMK A01 T02360161  RH  063%=      5-min Rain = 0
KQU1 041143Z 27004KT 24/16 A3005 RMK A01 T02360160  RH  062%=      5-min Rain = 0
KQU1 041144Z 27005KT 24/16 A3005 RMK A01 T02350159  RH  062%=      5-min Rain = 0
KQU1 041145Z 27005KT 24/16 A3005 RMK A01 T02350158  RH  062%=      5-min Rain = 0
KQU1 041146Z 28005KT 24/16 A3005 RMK A01 T02350158  RH  062%=      5-min Rain = 0
KQU1 041147Z 29004KT 23/16 A3006 RMK A01 T02340157  RH  062%=      5-min Rain = 0
KQU1 041148Z 31004KT 23/16 A3006 RMK A01 T02340157  RH  062%=      5-min Rain = 0
KQU1 041149Z 30004KT 23/16 A3006 RMK A01 T02340158  RH  062%=      5-min Rain = 0
KQU1 041150Z 30004KT 23/16 A3006 RMK A01 T02340158  RH  062%=      5-min Rain = 0
KQU1 041151Z 31004KT 23/16 A3006 RMK A01 T02340159  RH  062%=      5-min Rain = 0
KQU1 041152Z 31005KT 23/16 A3006 RMK A01 T02340160  RH  063%=      5-min Rain = 0
KQU1 041153Z 31004KT 23/16 A3006 RMK A01 T02340160  RH  063%=      5-min Rain = 0
KQU1 041154Z 31004KT 23/16 A3006 RMK A01 T02330161  RH  064%=      5-min Rain = 0
KQU1 041155Z 31004KT 23/16 A3006 RMK A01 T02320161  RH  064%=      5-min Rain = 0
KQU1 041156Z 31004KT 23/16 A3006 RMK A01 T02320161  RH  064%=      5-min Rain = 0
KQU1 041157Z 31005KT 23/16 A3006 RMK A01 T02310161  RH  064%=      5-min Rain = 0
KQU1 041158Z 31005KT 23/16 A3006 RMK A01 T02300160  RH  065%=      5-min Rain = 0
KQU1 041159Z 31006KT 23/16 A3006 RMK A01 T02290160  RH  065%=      5-min Rain = 0
KQU1 041200Z 30006KT 23/16 A3006 RMK A01 T02280160  RH  065%=      5-min Rain = 0
KQU1 041201Z 31006KT 23/16 A3006 RMK A01 T02280160  RH  065%=      5-min Rain = 0
KQU1 041202Z 31006KT 23/16 A3006 RMK A01 T02280159  RH  065%=      5-min Rain = 0
KQU1 041203Z 31007KT 23/16 A3006 RMK A01 T02280158  RH  065%=      5-min Rain = 0
KQU1 041204Z 31007KT 23/16 A3006 RMK A01 T02290158  RH  064%=      5-min Rain = 0
KQU1 041205Z 31006KT 23/16 A3006 RMK A01 T02290158  RH  064%=      5-min Rain = 0
KQU1 041206Z 31006KT 23/16 A3006 RMK A01 T02290158  RH  064%=      5-min Rain = 0
KQU1 041207Z 31006KT 23/16 A3006 RMK A01 T02290158  RH  064%=      5-min Rain = 0
KQU1 041208Z 31006KT 23/16 A3006 RMK A01 T02290158  RH  064%=      5-min Rain = 0
KQU1 041209Z 31006KT 23/16 A3005 RMK A01 T02290158  RH  064%=      5-min Rain = 0
KQU1 041210Z 30006KT 23/16 A3005 RMK A01 T02290159  RH  064%=      5-min Rain = 0
KQU1 041211Z 30006KT 23/16 A3005 RMK A01 T02290159  RH  064%=      5-min Rain = 0
KQU1 041212Z 31006KT 23/16 A3005 RMK A01 T02290159  RH  064%=      5-min Rain = 0
KQU1 041213Z 31006KT 23/16 A3005 RMK A01 T02290159  RH  065%=      5-min Rain = 0
KQU1 041214Z 31006KT 23/16 A3005 RMK A01 T02300159  RH  064%=      5-min Rain = 0
KQU1 041215Z 31006KT 23/16 A3005 RMK A01 T02300160  RH  064%=      5-min Rain = 0
KQU1 041216Z 31006KT 23/16 A3005 RMK A01 T02310159  RH  064%=      5-min Rain = 0
KQU1 041217Z 31006KT 23/16 A3005 RMK A01 T02310159  RH  064%=      5-min Rain = 0
KQU1 041218Z 31006KT 23/16 A3005 RMK A01 T02310159  RH  064%=      5-min Rain = 0
KQU1 041219Z 30005KT 23/16 A3005 RMK A01 T02320160  RH  064%=      5-min Rain = 0
KQU1 041220Z 30005KT 23/16 A3005 RMK A01 T02320161  RH  064%=      5-min Rain = 0
KQU1 041221Z 30005KT 23/16 A3005 RMK A01 T02320162  RH  065%=      5-min Rain = 0
KQU1 041222Z 30005KT 23/16 A3005 RMK A01 T02320163  RH  065%=      5-min Rain = 0
KQU1 041223Z 30005KT 23/16 A3005 RMK A01 T02330163  RH  065%=      5-min Rain = 0
KQU1 041224Z 30005KT 23/16 A3005 RMK A01 T02340164  RH  065%=      5-min Rain = 0
KQU1 041225Z 31005KT 23/16 A3005 RMK A01 T02340164  RH  065%=      5-min Rain = 0
KQU1 041226Z 30005KT 24/16 A3005 RMK A01 T02350164  RH  064%=      5-min Rain = 0
KQU1 041227Z 31005KT 24/16 A3005 RMK A01 T02360164  RH  064%=      5-min Rain = 0
KQU1 041228Z 31005KT 24/16 A3005 RMK A01 T02360164  RH  064%=      5-min Rain = 0
KQU1 041229Z 31005KT 24/16 A3005 RMK A01 T02370163  RH  063%=      5-min Rain = 0
KQU1 041230Z 31004KT 24/16 A3005 RMK A01 T02370163  RH  063%=      5-min Rain = 0
KQU1 041231Z 31004KT 24/16 A3005 RMK A01 T02380163  RH  063%=      5-min Rain = 0
KQU1 041232Z 32004KT 24/16 A3005 RMK A01 T02380163  RH  063%=      5-min Rain = 0
KQU1 041233Z 31005KT 24/16 A3005 RMK A01 T02380163  RH  063%=      5-min Rain = 0
KQU1 041234Z 32005KT 24/16 A3005 RMK A01 T02380163  RH  063%=      5-min Rain = 0
KQU1 041235Z 32005KT 24/16 A3005 RMK A01 T02380164  RH  063%=      5-min Rain = 0
KQU1 041236Z 32006KT 24/16 A3005 RMK A01 T02380164  RH  063%=      5-min Rain = 0
KQU1 041237Z 32006KT 24/16 A3005 RMK A01 T02390164  RH  063%=      5-min Rain = 0
KQU1 041238Z 32006KT 24/16 A3005 RMK A01 T02390164  RH  063%=      5-min Rain = 0
KQU1 041239Z 32005KT 24/17 A3005 RMK A01 T02400165  RH  063%=      5-min Rain = 0
KQU1 041240Z 31005KT 24/17 A3005 RMK A01 T02400165  RH  063%=      5-min Rain = 0
KQU1 041241Z 31005KT 24/17 A3005 RMK A01 T02410165  RH  063%=      5-min Rain = 0
KQU1 041242Z 31005KT 24/17 A3005 RMK A01 T02420166  RH  063%=      5-min Rain = 0
KQU1 041243Z 31004KT 24/17 A3005 RMK A01 T02430166  RH  062%=      5-min Rain = 0
KQU1 041244Z 32004KT 24/17 A3005 RMK A01 T02440167  RH  062%=      5-min Rain = 0
KQU1 041245Z 32004KT 25/17 A3005 RMK A01 T02450168  RH  062%=      5-min Rain = 0
KQU1 041246Z 32004KT 25/17 A3005 RMK A01 T02470169  RH  062%=      5-min Rain = 0
KQU1 041247Z 32005KT 25/17 A3005 RMK A01 T02480168  RH  061%=      5-min Rain = 0
KQU1 041248Z 32005KT 25/17 A3004 RMK A01 T02500167  RH  060%=      5-min Rain = 0
KQU1 041249Z 32004KT 25/17 A3004 RMK A01 T02520167  RH  059%=      5-min Rain = 0
KQU1 041250Z 32004KT 25/17 A3004 RMK A01 T02530167  RH  059%=      5-min Rain = 0
KQU1 041251Z 31004KT 26/17 A3004 RMK A01 T02550168  RH  058%=      5-min Rain = 0
KQU1 041252Z 31004KT 26/17 A3004 RMK A01 T02560165  RH  057%=      5-min Rain = 0
KQU1 041253Z 31004KT 26/16 A3004 RMK A01 T02570164  RH  057%=      5-min Rain = 0
KQU1 041254Z 31004KT 26/17 A3004 RMK A01 T02570166  RH  057%=      5-min Rain = 0
KQU1 041255Z 32004KT 26/17 A3004 RMK A01 T02590165  RH  056%=      5-min Rain = 0
KQU1 041256Z 32003KT 26/17 A3004 RMK A01 T02590166  RH  056%=      5-min Rain = 0
KQU1 041257Z 32003KT 26/17 A3004 RMK A01 T02600167  RH  056%=      5-min Rain = 0
KQU1 041258Z 33004KT 26/17 A3004 RMK A01 T02610165  RH  055%=      5-min Rain = 0
KQU1 041259Z 33003KT 26/17 A3004 RMK A01 T02620166  RH  056%=      5-min Rain = 0
KQU1 041300Z 33003KT 26/17 A3004 RMK A01 T02630167  RH  056%=      5-min Rain = 0
KQU1 041301Z 33002KT 26/17 A3004 RMK A01 T02640168  RH  056%=      5-min Rain = 0
KQU1 041302Z 34003KT 27/17 A3004 RMK A01 T02650169  RH  056%=      5-min Rain = 0
KQU1 041303Z 35004KT 27/17 A3004 RMK A01 T02660169  RH  055%=      5-min Rain = 0
KQU1 041304Z 35004KT 27/17 A3004 RMK A01 T02660168  RH  055%=      5-min Rain = 0
KQU1 041305Z 35004KT 27/17 A3004 RMK A01 T02660167  RH  054%=      5-min Rain = 0
KQU1 041306Z 35004KT 27/17 A3004 RMK A01 T02660167  RH  055%=      5-min Rain = 0
KQU1 041307Z 35004KT 27/17 A3004 RMK A01 T02660169  RH  055%=      5-min Rain = 0
KQU1 041308Z 35004KT 27/17 A3004 RMK A01 T02670168  RH  054%=      5-min Rain = 0
KQU1 041309Z 00003KT 27/17 A3004 RMK A01 T02670169  RH  055%=      5-min Rain = 0
KQU1 041310Z 00003KT 27/17 A3005 RMK A01 T02680173  RH  056%=      5-min Rain = 0
KQU1 041311Z 34002KT 27/17 A3005 RMK A01 T02690173  RH  056%=      5-min Rain = 0
KQU1 041312Z 00002KT 27/17 A3005 RMK A01 T02710173  RH  055%=      5-min Rain = 0
KQU1 041313Z 35002KT 27/17 A3004 RMK A01 T02720172  RH  055%=      5-min Rain = 0
KQU1 041314Z 36003KT 27/17 A3004 RMK A01 T02720169  RH  053%=      5-min Rain = 0
KQU1 041315Z 36003KT 27/17 A3004 RMK A01 T02730170  RH  053%=      5-min Rain = 0
KQU1 041316Z 01003KT 27/17 A3004 RMK A01 T02730169  RH  053%=      5-min Rain = 0
KQU1 041317Z 04001KT 27/17 A3004 RMK A01 T02730168  RH  053%=      5-min Rain = 0
KQU1 041318Z 02002KT 27/17 A3004 RMK A01 T02720169  RH  053%=      5-min Rain = 0
KQU1 041319Z 02003KT 27/17 A3004 RMK A01 T02730169  RH  053%=      5-min Rain = 0
KQU1 041320Z 01002KT 27/17 A3005 RMK A01 T02730171  RH  054%=      5-min Rain = 0
KQU1 041321Z 01003KT 27/17 A3005 RMK A01 T02730173  RH  054%=      5-min Rain = 0
KQU1 041322Z 35002KT 27/17 A3005 RMK A01 T02730173  RH  054%=      5-min Rain = 0
KQU1 041323Z 02003KT 27/17 A3005 RMK A01 T02740171  RH  053%=      5-min Rain = 0
KQU1 041324Z 02003KT 27/17 A3005 RMK A01 T02740171  RH  053%=      5-min Rain = 0
KQU1 041325Z 35002G7KT 27/17 A3005 RMK A01 T02740170  RH  053%=      5-min Rain = 0
KQU1 041326Z 34003KT 27/17 A3005 RMK A01 T02740169  RH  053%=      5-min Rain = 0
KQU1 041327Z 00004KT 27/17 A3005 RMK A01 T02730166  RH  052%=      5-min Rain = 0
KQU1 041328Z 00003KT 27/17 A3005 RMK A01 T02730167  RH  052%=      5-min Rain = 0
KQU1 041329Z 00004KT 27/17 A3005 RMK A01 T02730166  RH  052%=      5-min Rain = 0
KQU1 041330Z 00003KT 27/17 A3005 RMK A01 T02730166  RH  052%=      5-min Rain = 0
KQU1 041331Z 03001KT 27/17 A3005 RMK A01 T02740168  RH  052%=      5-min Rain = 0
KQU1 041332Z 01003KT 28/17 A3005 RMK A01 T02750170  RH  053%=      5-min Rain = 0
KQU1 041333Z 02004KT 28/17 A3005 RMK A01 T02750167  RH  052%=      5-min Rain = 0
KQU1 041334Z 02002KT 28/17 A3005 RMK A01 T02750165  RH  051%=      5-min Rain = 0
KQU1 041335Z 36003KT 28/16 A3005 RMK A01 T02750164  RH  051%=      5-min Rain = 0
KQU1 041336Z 01005KT 27/16 A3005 RMK A01 T02740164  RH  051%=      5-min Rain = 0
KQU1 041337Z 35003KT 28/16 A3005 RMK A01 T02750164  RH  051%=      5-min Rain = 0
KQU1 041338Z 01005KT 27/16 A3005 RMK A01 T02740164  RH  051%=      5-min Rain = 0
KQU1 041339Z 35004KT 27/16 A3005 RMK A01 T02740164  RH  051%=      5-min Rain = 0
KQU1 041340Z 01004KT 28/16 A3005 RMK A01 T02750162  RH  050%=      5-min Rain = 0
KQU1 041341Z 01003KT 28/16 A3005 RMK A01 T02750163  RH  050%=      5-min Rain = 0
KQU1 041342Z 36004KT 28/16 A3005 RMK A01 T02750162  RH  050%=      5-min Rain = 0
KQU1 041343Z 01003KT 28/16 A3005 RMK A01 T02750164  RH  051%=      5-min Rain = 0
KQU1 041344Z 02002KT 28/17 A3005 RMK A01 T02750166  RH  051%=      5-min Rain = 0
KQU1 041345Z 36006KT 28/16 A3005 RMK A01 T02760164  RH  051%=      5-min Rain = 0
KQU1 041346Z 00006KT 28/16 A3005 RMK A01 T02750162  RH  050%=      5-min Rain = 0
KQU1 041347Z 00004KT 27/16 A3005 RMK A01 T02740161  RH  050%=      5-min Rain = 0
KQU1 041348Z 03003KT 27/16 A3005 RMK A01 T02740163  RH  051%=      5-min Rain = 0
KQU1 041349Z 01002KT 27/16 A3005 RMK A01 T02740161  RH  050%=      5-min Rain = 0
KQU1 041350Z 01002KT 27/16 A3005 RMK A01 T02740163  RH  051%=      5-min Rain = 0
KQU1 041351Z 02004KT 27/16 A3005 RMK A01 T02740162  RH  050%=      5-min Rain = 0
KQU1 041352Z 36003KT 27/16 A3005 RMK A01 T02730161  RH  050%=      5-min Rain = 0
KQU1 041353Z 02004KT 27/16 A3005 RMK A01 T02730160  RH  050%=      5-min Rain = 0
KQU1 041354Z 00002KT 27/16 A3005 RMK A01 T02730161  RH  050%=      5-min Rain = 0
KQU1 041355Z 36003KT 27/16 A3005 RMK A01 T02720159  RH  050%=      5-min Rain = 0
KQU1 041356Z 02003KT 27/16 A3005 RMK A01 T02720160  RH  050%=      5-min Rain = 0
KQU1 041357Z 02001KT 27/16 A3005 RMK A01 T02720161  RH  051%=      5-min Rain = 0
KQU1 041358Z 01005KT 27/16 A3005 RMK A01 T02710159  RH  050%=      5-min Rain = 0
KQU1 041359Z 03003KT 27/16 A3005 RMK A01 T02710157  RH  050%=      5-min Rain = 0
KQU1 041400Z 01003KT 27/16 A3005 RMK A01 T02700157  RH  050%=      5-min Rain = 0
KQU1 041401Z 01003KT 27/16 A3005 RMK A01 T02710158  RH  050%=      5-min Rain = 0
KQU1 041402Z 01005KT 27/16 A3005 RMK A01 T02710158  RH  050%=      5-min Rain = 0
KQU1 041403Z 02004KT 27/16 A3005 RMK A01 T02720158  RH  050%=      5-min Rain = 0
KQU1 041404Z 02003KT 27/16 A3005 RMK A01 T02730158  RH  050%=      5-min Rain = 0
KQU1 041405Z 04004KT 27/16 A3005 RMK A01 T02740159  RH  049%=      5-min Rain = 0
KQU1 041406Z 03004KT 27/16 A3005 RMK A01 T02740158  RH  049%=      5-min Rain = 0
KQU1 041407Z 01005KT 27/16 A3005 RMK A01 T02740158  RH  049%=      5-min Rain = 0
KQU1 041408Z 01004G10KT 28/16 A3005 RMK A01 T02750157  RH  049%=      5-min Rain = 0
KQU1 041409Z 01005G10KT 28/16 A3005 RMK A01 T02750155  RH  048%=      5-min Rain = 0
KQU1 041410Z 03003KT 28/16 A3005 RMK A01 T02760155  RH  048%=      5-min Rain = 0
KQU1 041411Z 34002KT 28/16 A3005 RMK A01 T02770156  RH  048%=      5-min Rain = 0
KQU1 041412Z 04002KT 28/16 A3005 RMK A01 T02780158  RH  048%=      5-min Rain = 0
KQU1 041413Z 02003KT 28/16 A3005 RMK A01 T02790158  RH  048%=      5-min Rain = 0
KQU1 041414Z 04005KT 28/16 A3005 RMK A01 T02810158  RH  047%=      5-min Rain = 0
KQU1 041415Z 36005KT 28/16 A3005 RMK A01 T02810160  RH  048%=      5-min Rain = 0
KQU1 041416Z 01004KT 28/16 A3005 RMK A01 T02810157  RH  047%=      5-min Rain = 0
KQU1 041417Z 36004KT 28/16 A3005 RMK A01 T02820156  RH  047%=      5-min Rain = 0
KQU1 041418Z 02003KT 28/16 A3005 RMK A01 T02830158  RH  046%=      5-min Rain = 0
KQU1 041419Z 02003KT 28/16 A3005 RMK A01 T02840158  RH  046%=      5-min Rain = 0
KQU1 041420Z 00007KT 28/16 A3005 RMK A01 T02840157  RH  046%=      5-min Rain = 0
KQU1 041421Z 35007KT 28/15 A3005 RMK A01 T02830154  RH  046%=      5-min Rain = 0
KQU1 041422Z 03005KT 28/16 A3005 RMK A01 T02810157  RH  047%=      5-min Rain = 0
KQU1 041423Z 01006KT 28/16 A3005 RMK A01 T02820158  RH  047%=      5-min Rain = 0
KQU1 041424Z 01007KT 28/16 A3005 RMK A01 T02820155  RH  046%=      5-min Rain = 0
KQU1 041425Z 03004KT 28/15 A3005 RMK A01 T02800154  RH  046%=      5-min Rain = 0
KQU1 041426Z 01004KT 28/16 A3005 RMK A01 T02810156  RH  047%=      5-min Rain = 0
KQU1 041427Z 01005G10KT 28/15 A3005 RMK A01 T02810154  RH  046%=      5-min Rain = 0
KQU1 041428Z 01004KT 28/16 A3005 RMK A01 T02820156  RH  046%=      5-min Rain = 0
KQU1 041429Z 02004KT 28/16 A3005 RMK A01 T02830155  RH  046%=      5-min Rain = 0
KQU1 041430Z 04008G14KT 28/16 A3005 RMK A01 T02830155  RH  046%=      5-min Rain = 0
KQU1 041431Z 04011KT 28/15 A3005 RMK A01 T02820150  RH  045%=      5-min Rain = 0
KQU1 041432Z 04006G11KT 28/15 A3005 RMK A01 T02800154  RH  046%=      5-min Rain = 0
KQU1 041433Z 01005G11KT 28/16 A3006 RMK A01 T02800156  RH  047%=      5-min Rain = 0
KQU1 041434Z 01007KT 28/15 A3006 RMK A01 T02800151  RH  045%=      5-min Rain = 0
KQU1 041435Z 01005KT 28/15 A3006 RMK A01 T02800153  RH  046%=      5-min Rain = 0
KQU1 041436Z 02008KT 28/15 A3006 RMK A01 T02810153  RH  046%=      5-min Rain = 0
KQU1 041437Z 03010KT 28/15 A3006 RMK A01 T02800151  RH  045%=      5-min Rain = 0
KQU1 041438Z 01005G10KT 28/15 A3006 RMK A01 T02800153  RH  046%=      5-min Rain = 0
KQU1 041439Z 04006KT 28/15 A3006 RMK A01 T02810153  RH  046%=      5-min Rain = 0
KQU1 041440Z 04006KT 28/15 A3005 RMK A01 T02810154  RH  046%=      5-min Rain = 0
KQU1 041441Z 35002KT 28/16 A3006 RMK A01 T02820158  RH  047%=      5-min Rain = 0
KQU1 041442Z 01002G7KT 29/16 A3006 RMK A01 T02850158  RH  046%=      5-min Rain = 0
KQU1 041443Z 01005G10KT 29/16 A3006 RMK A01 T02860159  RH  046%=      5-min Rain = 0
KQU1 041444Z 03006KT 29/15 A3006 RMK A01 T02860154  RH  045%=      5-min Rain = 0
KQU1 041445Z 02006KT 29/15 A3005 RMK A01 T02850154  RH  045%=      5-min Rain = 0
KQU1 041446Z 01006KT 29/16 A3005 RMK A01 T02850155  RH  045%=      5-min Rain = 0
KQU1 041447Z 01005KT 28/15 A3005 RMK A01 T02840154  RH  045%=      5-min Rain = 0
KQU1 041448Z 04009KT 28/15 A3005 RMK A01 T02840154  RH  045%=      5-min Rain = 0
KQU1 041449Z 03008KT 28/15 A3005 RMK A01 T02840154  RH  045%=      5-min Rain = 0
KQU1 041450Z 01005KT 28/15 A3005 RMK A01 T02830154  RH  045%=      5-min Rain = 0
KQU1 041451Z 03005KT 28/15 A3005 RMK A01 T02830154  RH  045%=      5-min Rain = 0
KQU1 041452Z 04005KT 28/15 A3005 RMK A01 T02830154  RH  046%=      5-min Rain = 0
KQU1 041453Z 04005KT 28/16 A3005 RMK A01 T02840155  RH  046%=      5-min Rain = 0
KQU1 041454Z 02004KT 28/16 A3005 RMK A01 T02840156  RH  046%=      5-min Rain = 0
KQU1 041455Z 04005KT 28/16 A3005 RMK A01 T02840157  RH  046%=      5-min Rain = 0
KQU1 041456Z 05004KT 29/16 A3005 RMK A01 T02850157  RH  046%=      5-min Rain = 0
KQU1 041457Z 04003KT 29/16 A3005 RMK A01 T02860159  RH  046%=      5-min Rain = 0
KQU1 041458Z 05005KT 29/16 A3005 RMK A01 T02870157  RH  045%=      5-min Rain = 0
KQU1 041459Z 03006KT 29/16 A3005 RMK A01 T02870157  RH  045%=      5-min Rain = 0
KQU1 041500Z 05005KT 29/16 A3005 RMK A01 T02870158  RH  046%=      5-min Rain = 0
KQU1 041501Z 03003KT 29/16 A3005 RMK A01 T02870158  RH  045%=      5-min Rain = 0
KQU1 041502Z 05006KT 29/16 A3005 RMK A01 T02880158  RH  045%=      5-min Rain = 0
KQU1 041503Z 03003KT 29/16 A3005 RMK A01 T02890159  RH  045%=      5-min Rain = 0
KQU1 041504Z 35002KT 29/16 A3005 RMK A01 T02900159  RH  045%=      5-min Rain = 0
KQU1 041505Z 03003KT 29/16 A3005 RMK A01 T02900158  RH  045%=      5-min Rain = 0
KQU1 041506Z 35004KT 29/16 A3005 RMK A01 T02910155  RH  044%=      5-min Rain = 0
KQU1 041507Z 00004KT 29/16 A3005 RMK A01 T02900155  RH  044%=      5-min Rain = 0
KQU1 041508Z 00004KT 29/16 A3005 RMK A01 T02900156  RH  044%=      5-min Rain = 0
KQU1 041509Z 00005KT 29/15 A3005 RMK A01 T02900153  RH  043%=      5-min Rain = 0
KQU1 041510Z 00005KT 29/16 A3005 RMK A01 T02890155  RH  044%=      5-min Rain = 0
KQU1 041511Z 02005KT 29/16 A3005 RMK A01 T02890157  RH  045%=      5-min Rain = 0
KQU1 041512Z 01004KT 29/15 A3005 RMK A01 T02890154  RH  044%=      5-min Rain = 0
KQU1 041513Z 35005KT 29/16 A3005 RMK A01 T02880155  RH  044%=      5-min Rain = 0
KQU1 041514Z 35007KT 29/15 A3005 RMK A01 T02870152  RH  044%=      5-min Rain = 0
KQU1 041515Z 33005KT 29/15 A3005 RMK A01 T02870153  RH  044%=      5-min Rain = 0
KQU1 041516Z 35006KT 29/15 A3005 RMK A01 T02880153  RH  044%=      5-min Rain = 0
KQU1 041517Z 34004KT 29/15 A3005 RMK A01 T02880154  RH  044%=      5-min Rain = 0
KQU1 041518Z 03003KT 29/16 A3005 RMK A01 T02890157  RH  045%=      5-min Rain = 0
KQU1 041519Z 02005KT 29/16 A3005 RMK A01 T02900162  RH  046%=      5-min Rain = 0
KQU1 041520Z 03004KT 29/16 A3005 RMK A01 T02920157  RH  044%=      5-min Rain = 0
KQU1 041521Z 35004KT 29/16 A3005 RMK A01 T02930158  RH  044%=      5-min Rain = 0
KQU1 041522Z 00004KT 29/16 A3005 RMK A01 T02930156  RH  043%=      5-min Rain = 0
KQU1 041523Z 01004KT 29/16 A3005 RMK A01 T02930156  RH  043%=      5-min Rain = 0
KQU1 041524Z 04003KT 29/16 A3005 RMK A01 T02940159  RH  044%=      5-min Rain = 0
KQU1 041525Z 36003KT 30/16 A3005 RMK A01 T02950158  RH  044%=      5-min Rain = 0
KQU1 041526Z 04004KT 30/16 A3005 RMK A01 T02960160  RH  044%=      5-min Rain = 0
KQU1 041527Z 05005KT 30/16 A3005 RMK A01 T02960157  RH  043%=      5-min Rain = 0
KQU1 041528Z 02004KT 30/16 A3005 RMK A01 T02950157  RH  043%=      5-min Rain = 0
KQU1 041529Z 01004KT 30/16 A3005 RMK A01 T02950157  RH  043%=      5-min Rain = 0
KQU1 041530Z 36004KT 30/16 A3005 RMK A01 T02960157  RH  043%=      5-min Rain = 0
KQU1 041531Z 00005KT 30/15 A3005 RMK A01 T02960154  RH  042%=      5-min Rain = 0
KQU1 041532Z 00004KT 30/15 A3005 RMK A01 T02950154  RH  042%=      5-min Rain = 0
KQU1 041533Z 07002KT 30/16 A3005 RMK A01 T02950157  RH  043%=      5-min Rain = 0
KQU1 041534Z 06004KT 30/16 A3005 RMK A01 T02960158  RH  043%=      5-min Rain = 0
KQU1 041535Z 04007KT 30/16 A3005 RMK A01 T02970157  RH  043%=      5-min Rain = 0
KQU1 041536Z 04006KT 30/16 A3005 RMK A01 T02960156  RH  043%=      5-min Rain = 0
KQU1 041537Z 04003KT 30/16 A3005 RMK A01 T02960156  RH  043%=      5-min Rain = 0
KQU1 041538Z 01003KT 30/16 A3005 RMK A01 T02960159  RH  043%=      5-min Rain = 0
KQU1 041539Z 01004KT 30/16 A3005 RMK A01 T02980159  RH  043%=      5-min Rain = 0
KQU1 041540Z 04006KT 30/16 A3005 RMK A01 T02990157  RH  042%=      5-min Rain = 0
KQU1 041541Z 02005KT 30/16 A3005 RMK A01 T02980156  RH  042%=      5-min Rain = 0
KQU1 041542Z 35004KT 30/16 A3005 RMK A01 T02980157  RH  042%=      5-min Rain = 0
KQU1 041543Z 35006KT 30/15 A3005 RMK A01 T02990152  RH  041%=      5-min Rain = 0
KQU1 041544Z 33005KT 30/15 A3005 RMK A01 T02980153  RH  041%=      5-min Rain = 0
KQU1 041545Z 03004KT 30/15 A3005 RMK A01 T02980153  RH  042%=      5-min Rain = 0
KQU1 041546Z 05005KT 30/16 A3005 RMK A01 T02980157  RH  042%=      5-min Rain = 0
KQU1 041547Z 05005KT 30/15 A3005 RMK A01 T02980154  RH  042%=      5-min Rain = 0
KQU1 041548Z 05003KT 30/15 A3005 RMK A01 T02980153  RH  041%=      5-min Rain = 0
KQU1 041549Z 03004KT 30/16 A3005 RMK A01 T02990157  RH  042%=      5-min Rain = 0
KQU1 041550Z 03002KT 30/16 A3005 RMK A01 T02990160  RH  043%=      5-min Rain = 0
KQU1 041551Z 01002G7KT 30/16 A3005 RMK A01 T03010159  RH  042%=      5-min Rain = 0
KQU1 041552Z 01003KT 30/16 A3005 RMK A01 T03030160  RH  042%=      5-min Rain = 0
KQU1 041553Z 02005KT 30/15 A3005 RMK A01 T03040154  RH  040%=      5-min Rain = 0
KQU1 041554Z 02004KT 30/16 A3005 RMK A01 T03020155  RH  041%=      5-min Rain = 0
KQU1 041555Z 01003KT 30/16 A3005 RMK A01 T03020158  RH  042%=      5-min Rain = 0
KQU1 041556Z 33002KT 30/15 A3005 RMK A01 T03020148  RH  039%=      5-min Rain = 0
KQU1 041557Z 02002KT 30/15 A3005 RMK A01 T03030153  RH  040%=      5-min Rain = 0
KQU1 041558Z 08004KT 31/16 A3005 RMK A01 T03050160  RH  042%=      5-min Rain = 0
KQU1 041559Z 04003KT 31/16 A3005 RMK A01 T03060157  RH  041%=      5-min Rain = 0
KQU1 041600Z 04004KT 31/16 A3005 RMK A01 T03070157  RH  040%=      5-min Rain = 0
KQU1 041601Z 06005KT 31/15 A3005 RMK A01 T03060153  RH  039%=      5-min Rain = 0
KQU1 041602Z 06003KT 31/15 A3005 RMK A01 T03060153  RH  040%=      5-min Rain = 0
KQU1 041603Z 06003KT 31/15 A3005 RMK A01 T03050153  RH  040%=      5-min Rain = 0
KQU1 041604Z 07005KT 31/16 A3005 RMK A01 T03060155  RH  040%=      5-min Rain = 0
KQU1 041605Z 06005KT 31/16 A3005 RMK A01 T03070157  RH  040%=      5-min Rain = 0
KQU1 041606Z 06004KT 31/15 A3005 RMK A01 T03070151  RH  039%=      5-min Rain = 0
KQU1 041607Z 07003KT 31/15 A3005 RMK A01 T03060153  RH  040%=      5-min Rain = 0
KQU1 041608Z 04003KT 31/16 A3005 RMK A01 T03070155  RH  040%=      5-min Rain = 0
KQU1 041609Z 34003KT 31/15 A3005 RMK A01 T03080153  RH  039%=      5-min Rain = 0
KQU1 041610Z 32002KT 31/15 A3005 RMK A01 T03080146  RH  038%=      5-min Rain = 0
KQU1 041611Z 31002KT 31/14 A3005 RMK A01 T03070144  RH  037%=      5-min Rain = 0
KQU1 041612Z 32000KT 31/15 A3005 RMK A01 T03070147  RH  038%=      5-min Rain = 0
KQU1 041613Z 06001KT 31/15 A3005 RMK A01 T03090150  RH  038%=      5-min Rain = 0
KQU1 041614Z 06003KT 31/15 A3005 RMK A01 T03100153  RH  039%=      5-min Rain = 0
KQU1 041615Z 07005KT 31/16 A3005 RMK A01 T03110155  RH  039%=      5-min Rain = 0
KQU1 041616Z 06005KT 31/15 A3005 RMK A01 T03100151  RH  038%=      5-min Rain = 0
KQU1 041617Z 06004KT 31/15 A3005 RMK A01 T03090149  RH  038%=      5-min Rain = 0
KQU1 041618Z 09005KT 31/15 A3005 RMK A01 T03090151  RH  038%=      5-min Rain = 0
KQU1 041619Z 09003KT 31/15 A3005 RMK A01 T03100151  RH  038%=      5-min Rain = 0
KQU1 041620Z 08003KT 31/16 A3005 RMK A01 T03110155  RH  039%=      5-min Rain = 0
KQU1 041621Z 08002KT 31/15 A3005 RMK A01 T03120150  RH  038%=      5-min Rain = 0
KQU1 041622Z 02002KT 31/15 A3005 RMK A01 T03130152  RH  038%=      5-min Rain = 0
KQU1 041623Z 01002KT 31/15 A3005 RMK A01 T03120152  RH  038%=      5-min Rain = 0
KQU1 041624Z 04003KT 31/16 A3005 RMK A01 T03130156  RH  039%=      5-min Rain = 0
KQU1 041625Z 02005KT 31/15 A3005 RMK A01 T03140153  RH  038%=      5-min Rain = 0
KQU1 041626Z 01005KT 31/15 A3005 RMK A01 T03130153  RH  038%=      5-min Rain = 0
KQU1 041627Z 01003KT 31/15 A3005 RMK A01 T03130148  RH  037%=      5-min Rain = 0
KQU1 041628Z 36002KT 31/15 A3005 RMK A01 T03120145  RH  036%=      5-min Rain = 0
KQU1 041629Z 30001KT 31/14 A3005 RMK A01 T03120144  RH  036%=      5-min Rain = 0
KQU1 041630Z 25001KT 31/14 A3005 RMK A01 T03120142  RH  036%=      5-min Rain = 0
KQU1 041631Z 26001KT 31/14 A3005 RMK A01 T03140143  RH  035%=      5-min Rain = 0
KQU1 041632Z 09002KT 32/15 A3005 RMK A01 T03160153  RH  037%=      5-min Rain = 0
KQU1 041633Z 05002KT 32/16 A3005 RMK A01 T03170156  RH  038%=      5-min Rain = 0
KQU1 041634Z 03003KT 32/15 A3005 RMK A01 T03170154  RH  037%=      5-min Rain = 0
KQU1 041635Z 04004KT 32/15 A3005 RMK A01 T03160154  RH  038%=      5-min Rain = 0
KQU1 041636Z 02003KT 31/15 A3005 RMK A01 T03140154  RH  038%=      5-min Rain = 0
KQU1 041637Z 34001KT 31/15 A3005 RMK A01 T03140152  RH  038%=      5-min Rain = 0
KQU1 041638Z 06001KT 32/15 A3006 RMK A01 T03150152  RH  037%=      5-min Rain = 0
KQU1 041639Z 05003KT 32/15 A3005 RMK A01 T03160150  RH  037%=      5-min Rain = 0
KQU1 041640Z 06004KT 32/15 A3005 RMK A01 T03150150  RH  037%=      5-min Rain = 0
KQU1 041641Z 05005KT 32/15 A3005 RMK A01 T03150154  RH  038%=      5-min Rain = 0
KQU1 041642Z 06007KT 32/16 A3005 RMK A01 T03160157  RH  038%=      5-min Rain = 0
KQU1 041643Z 07009KT 32/15 A3005 RMK A01 T03160153  RH  037%=      5-min Rain = 0
KQU1 041644Z 06006KT 32/15 A3006 RMK A01 T03150149  RH  037%=      5-min Rain = 0
KQU1 041645Z 09004KT 32/15 A3005 RMK A01 T03150151  RH  037%=      5-min Rain = 0
KQU1 041646Z 08004KT 32/15 A3006 RMK A01 T03150153  RH  038%=      5-min Rain = 0
KQU1 041647Z 06004KT 32/15 A3006 RMK A01 T03150153  RH  037%=      5-min Rain = 0
KQU1 041648Z 04004KT 32/15 A3006 RMK A01 T03150149  RH  037%=      5-min Rain = 0
KQU1 041649Z 07004KT 32/15 A3006 RMK A01 T03150154  RH  038%=      5-min Rain = 0
KQU1 041650Z 04004KT 32/15 A3006 RMK A01 T03160153  RH  037%=      5-min Rain = 0
KQU1 041651Z 05003KT 32/16 A3005 RMK A01 T03160158  RH  039%=      5-min Rain = 0
KQU1 041652Z 03003KT 32/16 A3006 RMK A01 T03170156  RH  038%=      5-min Rain = 0
KQU1 041653Z 04004KT 32/15 A3006 RMK A01 T03170150  RH  037%=      5-min Rain = 0
KQU1 041654Z 04002KT 32/15 A3005 RMK A01 T03170146  RH  036%=      5-min Rain = 0
KQU1 041655Z 08003KT 32/15 A3006 RMK A01 T03170147  RH  036%=      5-min Rain = 0
KQU1 041656Z 08007KT 32/15 A3006 RMK A01 T03180151  RH  036%=      5-min Rain = 0
KQU1 041657Z 07007KT 32/15 A3006 RMK A01 T03190148  RH  036%=      5-min Rain = 0
KQU1 041658Z 08006KT 32/15 A3006 RMK A01 T03190145  RH  035%=      5-min Rain = 0
KQU1 041659Z 11006KT 32/14 A3006 RMK A01 T03180144  RH  035%=      5-min Rain = 0
KQU1 041700Z 11003KT 32/14 A3006 RMK A01 T03170143  RH  035%=      5-min Rain = 0
KQU1 041701Z 11004KT 32/15 A3005 RMK A01 T03180146  RH  035%=      5-min Rain = 0
KQU1 041702Z 09007KT 32/15 A3006 RMK A01 T03190148  RH  036%=      5-min Rain = 0
KQU1 041703Z 10006KT 32/14 A3006 RMK A01 T03190142  RH  034%=      5-min Rain = 0
KQU1 041704Z 12005KT 32/15 A3005 RMK A01 T03180145  RH  035%=      5-min Rain = 0
KQU1 041705Z 13006KT 32/15 A3005 RMK A01 T03190148  RH  036%=      5-min Rain = 0
KQU1 041706Z 13006KT 32/14 A3005 RMK A01 T03200144  RH  034%=      5-min Rain = 0
KQU1 041707Z 12006KT 32/15 A3005 RMK A01 T03210145  RH  034%=      5-min Rain = 0
KQU1 041708Z 11005KT 32/15 A3005 RMK A01 T03220146  RH  035%=      5-min Rain = 0
KQU1 041709Z 05004KT 32/15 A3006 RMK A01 T03220146  RH  034%=      5-min Rain = 0
KQU1 041710Z 03004KT 32/15 A3006 RMK A01 T03220145  RH  034%=      5-min Rain = 0
KQU1 041711Z 05001KT 32/14 A3006 RMK A01 T03200143  RH  034%=      5-min Rain = 0
KQU1 041712Z 06002KT 32/15 A3006 RMK A01 T03210150  RH  036%=      5-min Rain = 0
KQU1 041713Z 04003KT 32/15 A3006 RMK A01 T03230152  RH  036%=      5-min Rain = 0
KQU1 041714Z 06005KT 33/15 A3006 RMK A01 T03250150  RH  035%=      5-min Rain = 0
KQU1 041715Z 06006KT 33/15 A3006 RMK A01 T03250148  RH  034%=      5-min Rain = 0
KQU1 041716Z 06003KT 33/15 A3006 RMK A01 T03250148  RH  034%=      5-min Rain = 0
KQU1 041717Z 08004KT 33/14 A3006 RMK A01 T03260144  RH  033%=      5-min Rain = 0
KQU1 041718Z 06006KT 33/15 A3006 RMK A01 T03260150  RH  035%=      5-min Rain = 0
KQU1 041719Z 06003KT 33/15 A3006 RMK A01 T03260147  RH  034%=      5-min Rain = 0
KQU1 041720Z 06003KT 33/15 A3005 RMK A01 T03250150  RH  035%=      5-min Rain = 0
KQU1 041721Z 07004KT 33/15 A3005 RMK A01 T03260146  RH  034%=      5-min Rain = 0
KQU1 041722Z 06004KT 33/14 A3005 RMK A01 T03250143  RH  033%=      5-min Rain = 0
KQU1 041723Z 06005KT 33/15 A3005 RMK A01 T03250152  RH  035%=      5-min Rain = 0
KQU1 041724Z 05006KT 33/15 A3005 RMK A01 T03260146  RH  034%=      5-min Rain = 0
KQU1 041725Z 04008KT 32/15 A3005 RMK A01 T03240145  RH  034%=      5-min Rain = 0
KQU1 041726Z 05005KT 32/15 A3005 RMK A01 T03230147  RH  035%=      5-min Rain = 0
KQU1 041727Z 04007KT 32/15 A3005 RMK A01 T03230147  RH  034%=      5-min Rain = 0
KQU1 041728Z 05004KT 32/15 A3005 RMK A01 T03230146  RH  034%=      5-min Rain = 0
KQU1 041729Z 08003KT 32/15 A3005 RMK A01 T03240151  RH  035%=      5-min Rain = 0
KQU1 041730Z 07004KT 33/15 A3005 RMK A01 T03260151  RH  035%=      5-min Rain = 0
KQU1 041731Z 07005KT 33/15 A3005 RMK A01 T03280150  RH  034%=      5-min Rain = 0
KQU1 041732Z 07005KT 33/14 A3005 RMK A01 T03280144  RH  033%=      5-min Rain = 0
KQU1 041733Z 06003KT 33/15 A3005 RMK A01 T03270148  RH  034%=      5-min Rain = 0
KQU1 041734Z 08003KT 33/14 A3005 RMK A01 T03280142  RH  033%=      5-min Rain = 0
KQU1 041735Z 07004KT 33/14 A3005 RMK A01 T03270143  RH  033%=      5-min Rain = 0
KQU1 041736Z 08005KT 33/15 A3005 RMK A01 T03270151  RH  035%=      5-min Rain = 0
KQU1 041737Z 08005KT 33/15 A3005 RMK A01 T03290149  RH  034%=      5-min Rain = 0
KQU1 041738Z 11005KT 33/15 A3005 RMK A01 T03290145  RH  033%=      5-min Rain = 0
KQU1 041739Z 12004KT 33/15 A3005 RMK A01 T03290145  RH  033%=      5-min Rain = 0
KQU1 041740Z 10002KT 33/14 A3005 RMK A01 T03290142  RH  032%=      5-min Rain = 0
KQU1 041741Z 06002KT 33/14 A3005 RMK A01 T03290140  RH  032%=      5-min Rain = 0
KQU1 041742Z 07004KT 33/15 A3005 RMK A01 T03300145  RH  033%=      5-min Rain = 0
KQU1 041743Z 10005KT 33/15 A3005 RMK A01 T03300145  RH  033%=      5-min Rain = 0
KQU1 041744Z 08008KT 33/15 A3005 RMK A01 T03310147  RH  033%=      5-min Rain = 0
KQU1 041745Z 08007KT 33/15 A3005 RMK A01 T03310147  RH  033%=      5-min Rain = 0
KQU1 041746Z 09007KT 33/15 A3005 RMK A01 T03320148  RH  033%=      5-min Rain = 0
KQU1 041747Z 07006KT 33/15 A3005 RMK A01 T03320147  RH  033%=      5-min Rain = 0
KQU1 041748Z 06008KT 33/15 A3005 RMK A01 T03330148  RH  033%=      5-min Rain = 0
KQU1 041749Z 08004KT 33/15 A3005 RMK A01 T03330146  RH  032%=      5-min Rain = 0
KQU1 041750Z 07005KT 33/15 A3005 RMK A01 T03330146  RH  032%=      5-min Rain = 0
KQU1 041751Z 05004KT 33/15 A3005 RMK A01 T03330149  RH  033%=      5-min Rain = 0
KQU1 041752Z 03005KT 33/15 A3005 RMK A01 T03340150  RH  033%=      5-min Rain = 0
KQU1 041753Z 06005KT 33/14 A3005 RMK A01 T03330144  RH  032%=      5-min Rain = 0
KQU1 041754Z 09001KT 33/14 A3005 RMK A01 T03320139  RH  031%=      5-min Rain = 0
KQU1 041755Z 07003KT 33/14 A3005 RMK A01 T03330143  RH  032%=      5-min Rain = 0
KQU1 041756Z 06004KT 33/14 A3005 RMK A01 T03330139  RH  031%=      5-min Rain = 0
KQU1 041757Z 04003KT 33/14 A3005 RMK A01 T03330142  RH  032%=      5-min Rain = 0
KQU1 041758Z 04003KT 33/14 A3005 RMK A01 T03330143  RH  032%=      5-min Rain = 0
KQU1 041759Z 06005KT 33/14 A3005 RMK A01 T03330142  RH  032%=      5-min Rain = 0
KQU1 041800Z 05003KT 33/14 A3005 RMK A01 T03320140  RH  031%=      5-min Rain = 0
KQU1 041801Z 06001KT 33/14 A3005 RMK A01 T03310141  RH  032%=      5-min Rain = 0
KQU1 041802Z 34002KT 33/15 A3005 RMK A01 T03330145  RH  032%=      5-min Rain = 0
KQU1 041803Z 03002KT 34/15 A3005 RMK A01 T03360148  RH  032%=      5-min Rain = 0
KQU1 041804Z 03004KT 34/15 A3005 RMK A01 T03380146  RH  032%=      5-min Rain = 0
KQU1 041805Z 07004KT 34/15 A3005 RMK A01 T03380146  RH  032%=      5-min Rain = 0
KQU1 041806Z 08005KT 34/15 A3005 RMK A01 T03380146  RH  031%=      5-min Rain = 0
KQU1 041807Z 08005KT 34/14 A3005 RMK A01 T03380142  RH  031%=      5-min Rain = 0
KQU1 041808Z 09002KT 34/14 A3005 RMK A01 T03350135  RH  030%=      5-min Rain = 0
KQU1 041809Z 14002KT 33/14 A3005 RMK A01 T03330138  RH  031%=      5-min Rain = 0
KQU1 041810Z 11002KT 33/14 A3004 RMK A01 T03340139  RH  031%=      5-min Rain = 0
KQU1 041811Z 08003KT 34/14 A3005 RMK A01 T03350142  RH  031%=      5-min Rain = 0
KQU1 041812Z 05004KT 34/15 A3004 RMK A01 T03360145  RH  032%=      5-min Rain = 0
KQU1 041813Z 06004KT 34/15 A3004 RMK A01 T03360146  RH  032%=      5-min Rain = 0
KQU1 041814Z 07008KT 34/15 A3004 RMK A01 T03370145  RH  032%=      5-min Rain = 0
KQU1 041815Z 06006KT 34/15 A3004 RMK A01 T03380146  RH  032%=      5-min Rain = 0
KQU1 041816Z 05004KT 34/15 A3004 RMK A01 T03380145  RH  031%=      5-min Rain = 0
KQU1 041817Z 05003KT 34/14 A3004 RMK A01 T03380142  RH  031%=      5-min Rain = 0
KQU1 041818Z 05005KT 34/15 A3004 RMK A01 T03370147  RH  032%=      5-min Rain = 0
KQU1 041819Z 08005KT 34/15 A3004 RMK A01 T03380153  RH  033%=      5-min Rain = 0
KQU1 041820Z 08004KT 34/15 A3004 RMK A01 T03390154  RH  033%=      5-min Rain = 0
KQU1 041821Z 08004KT 34/15 A3004 RMK A01 T03400152  RH  032%=      5-min Rain = 0
KQU1 041822Z 09004KT 34/15 A3004 RMK A01 T03400153  RH  033%=      5-min Rain = 0
KQU1 041823Z 08003KT 34/15 A3004 RMK A01 T03410153  RH  033%=      5-min Rain = 0
KQU1 041824Z 06005KT 34/15 A3004 RMK A01 T03410145  RH  031%=      5-min Rain = 0
KQU1 041825Z 07002KT 34/14 A3004 RMK A01 T03390140  RH  030%=      5-min Rain = 0
KQU1 041826Z 03003KT 34/14 A3004 RMK A01 T03390144  RH  031%=      5-min Rain = 0
KQU1 041827Z 04008KT 34/15 A3004 RMK A01 T03390146  RH  031%=      5-min Rain = 0
KQU1 041828Z 03009KT 34/15 A3004 RMK A01 T03380146  RH  032%=      5-min Rain = 0
KQU1 041829Z 04007KT 34/15 A3004 RMK A01 T03350145  RH  032%=      5-min Rain = 0
KQU1 041830Z 03005KT 33/14 A3004 RMK A01 T03340143  RH  032%=      5-min Rain = 0
KQU1 041831Z 03005KT 33/14 A3004 RMK A01 T03340140  RH  031%=      5-min Rain = 0
KQU1 041832Z 02004KT 33/14 A3004 RMK A01 T03340144  RH  032%=      5-min Rain = 0
KQU1 041833Z 35006KT 33/14 A3004 RMK A01 T03340141  RH  031%=      5-min Rain = 0
KQU1 041834Z 35005KT 34/14 A3004 RMK A01 T03350140  RH  031%=      5-min Rain = 0
KQU1 041835Z 01003KT 34/14 A3004 RMK A01 T03390143  RH  031%=      5-min Rain = 0
KQU1 041836Z 06003KT 34/14 A3004 RMK A01 T03410144  RH  031%=      5-min Rain = 0
KQU1 041837Z 01003KT 34/14 A3004 RMK A01 T03420142  RH  030%=      5-min Rain = 0
KQU1 041838Z 35005KT 34/14 A3004 RMK A01 T03420138  RH  029%=      5-min Rain = 0
KQU1 041839Z 36005KT 34/14 A3004 RMK A01 T03420142  RH  030%=      5-min Rain = 0
KQU1 041840Z 35003KT 34/14 A3004 RMK A01 T03430135  RH  029%=      5-min Rain = 0
KQU1 041841Z 34003KT 34/14 A3003 RMK A01 T03410135  RH  029%=      5-min Rain = 0
KQU1 041842Z 34003KT 34/14 A3003 RMK A01 T03410135  RH  029%=      5-min Rain = 0
KQU1 041843Z 02002KT 34/14 A3003 RMK A01 T03420139  RH  030%=      5-min Rain = 0
KQU1 041844Z 01001KT 34/13 A3003 RMK A01 T03430133  RH  028%=      5-min Rain = 0
KQU1 041845Z 03001KT 34/14 A3003 RMK A01 T03440138  RH  029%=      5-min Rain = 0
KQU1 041846Z 04004KT 34/14 A3003 RMK A01 T03440143  RH  030%=      5-min Rain = 0
KQU1 041847Z 04003KT 34/14 A3003 RMK A01 T03430141  RH  030%=      5-min Rain = 0
KQU1 041848Z 12003KT 34/14 A3003 RMK A01 T03430140  RH  030%=      5-min Rain = 0
KQU1 041849Z 11004KT 34/15 A3003 RMK A01 T03430149  RH  031%=      5-min Rain = 0
KQU1 041850Z 11006KT 34/15 A3003 RMK A01 T03430150  RH  031%=      5-min Rain = 0
KQU1 041851Z 12003KT 34/15 A3003 RMK A01 T03430150  RH  031%=      5-min Rain = 0
KQU1 041852Z 10000KT 34/15 A3003 RMK A01 T03430146  RH  031%=      5-min Rain = 0
KQU1 041853Z 14002G7KT 35/15 A3003 RMK A01 T03450149  RH  031%=      5-min Rain = 0
KQU1 041854Z 12006KT 35/16 A3003 RMK A01 T03470156  RH  032%=      5-min Rain = 0
KQU1 041855Z 10007KT 35/15 A3003 RMK A01 T03470152  RH  031%=      5-min Rain = 0
KQU1 041856Z 02005G10KT 35/15 A3003 RMK A01 T03470148  RH  031%=      5-min Rain = 0
KQU1 041857Z 04005KT 34/15 A3003 RMK A01 T03440150  RH  031%=      5-min Rain = 0
KQU1 041858Z 07004KT 34/15 A3003 RMK A01 T03440153  RH  032%=      5-min Rain = 0
KQU1 041859Z 06007KT 35/15 A3003 RMK A01 T03450149  RH  031%=      5-min Rain = 0
KQU1 041900Z 06005KT 35/14 A3003 RMK A01 T03450144  RH  030%=      5-min Rain = 0
KQU1 041901Z 05004KT 35/14 A3003 RMK A01 T03450144  RH  030%=      5-min Rain = 0
KQU1 041902Z 04002KT 35/15 A3003 RMK A01 T03460147  RH  030%=      5-min Rain = 0
KQU1 041903Z 01002KT 35/15 A3003 RMK A01 T03480149  RH  031%=      5-min Rain = 0
KQU1 041904Z 35005KT 35/14 A3002 RMK A01 T03490142  RH  029%=      5-min Rain = 0
KQU1 041905Z 35005KT 35/14 A3002 RMK A01 T03480139  RH  029%=      5-min Rain = 0
KQU1 041906Z 35004KT 35/13 A3002 RMK A01 T03450134  RH  028%=      5-min Rain = 0
KQU1 041907Z 00003KT 35/14 A3002 RMK A01 T03450138  RH  029%=      5-min Rain = 0
KQU1 041908Z 35004KT 35/14 A3002 RMK A01 T03460140  RH  029%=      5-min Rain = 0
KQU1 041909Z 00003KT 35/14 A3002 RMK A01 T03460140  RH  029%=      5-min Rain = 0
KQU1 041910Z 02006KT 35/14 A3002 RMK A01 T03460140  RH  029%=      5-min Rain = 0
KQU1 041911Z 03003KT 34/14 A3002 RMK A01 T03440139  RH  029%=      5-min Rain = 0
KQU1 041912Z 06006KT 34/14 A3002 RMK A01 T03440143  RH  030%=      5-min Rain = 0
KQU1 041913Z 05005KT 34/15 A3002 RMK A01 T03430148  RH  031%=      5-min Rain = 0
KQU1 041914Z 04005KT 34/15 A3002 RMK A01 T03430147  RH  031%=      5-min Rain = 0
KQU1 041915Z 05003KT 34/14 A3002 RMK A01 T03440144  RH  030%=      5-min Rain = 0
KQU1 041916Z 04003KT 34/15 A3002 RMK A01 T03440145  RH  030%=      5-min Rain = 0
KQU1 041917Z 10004KT 35/15 A3002 RMK A01 T03460148  RH  031%=      5-min Rain = 0
KQU1 041918Z 08005KT 35/15 A3002 RMK A01 T03470146  RH  030%=      5-min Rain = 0
KQU1 041919Z 07007KT 35/15 A3002 RMK A01 T03480149  RH  030%=      5-min Rain = 0
KQU1 041920Z 06007KT 35/15 A3002 RMK A01 T03470148  RH  030%=      5-min Rain = 0
KQU1 041921Z 08008KT 35/15 A3002 RMK A01 T03460146  RH  030%=      5-min Rain = 0
KQU1 041922Z 07008KT 35/15 A3001 RMK A01 T03460150  RH  031%=      5-min Rain = 0
KQU1 041923Z 06007KT 35/15 A3001 RMK A01 T03460146  RH  030%=      5-min Rain = 0
KQU1 041924Z 05005KT 35/15 A3001 RMK A01 T03460150  RH  031%=      5-min Rain = 0
KQU1 041925Z 07006KT 35/15 A3001 RMK A01 T03460146  RH  030%=      5-min Rain = 0
KQU1 041926Z 06006KT 35/15 A3001 RMK A01 T03460147  RH  030%=      5-min Rain = 0
KQU1 041927Z 07007KT 35/15 A3001 RMK A01 T03460146  RH  030%=      5-min Rain = 0
KQU1 041928Z 06005KT 35/14 A3001 RMK A01 T03460143  RH  030%=      5-min Rain = 0
KQU1 041929Z 06005KT 35/15 A3001 RMK A01 T03470145  RH  030%=      5-min Rain = 0
KQU1 041930Z 10008KT 35/15 A3001 RMK A01 T03480150  RH  031%=      5-min Rain = 0
KQU1 041931Z 11009KT 35/15 A3001 RMK A01 T03490150  RH  030%=      5-min Rain = 0
KQU1 041932Z 09006KT 35/15 A3001 RMK A01 T03500149  RH  030%=      5-min Rain = 0
KQU1 041933Z 12006KT 35/15 A3001 RMK A01 T03500150  RH  030%=      5-min Rain = 0
KQU1 041934Z 11007KT 35/15 A3001 RMK A01 T03500147  RH  030%=      5-min Rain = 0
KQU1 041935Z 13004KT 35/14 A3001 RMK A01 T03490143  RH  029%=      5-min Rain = 0
KQU1 041936Z 11009KT 35/15 A3001 RMK A01 T03490147  RH  030%=      5-min Rain = 0
KQU1 041937Z 12009KT 35/15 A3001 RMK A01 T03480146  RH  030%=      5-min Rain = 0
KQU1 041938Z 12006KT 35/14 A3001 RMK A01 T03460141  RH  029%=      5-min Rain = 0
KQU1 041939Z 14005KT 35/15 A3001 RMK A01 T03450146  RH  030%=      5-min Rain = 0
KQU1 041940Z 13007KT 35/15 A3001 RMK A01 T03470148  RH  030%=      5-min Rain = 0
KQU1 041941Z 12005KT 35/15 A30 RMK A01 T03480146  RH  030%=      5-min Rain = 0
KQU1 041942Z 11005KT 35/15 A30 RMK A01 T03500150  RH  030%=      5-min Rain = 0
KQU1 041943Z 13007KT 35/15 A30 RMK A01 T03520147  RH  029%=      5-min Rain = 0
KQU1 041944Z 10007KT 35/15 A30 RMK A01 T03520149  RH  030%=      5-min Rain = 0
KQU1 041945Z 10008KT 35/14 A30 RMK A01 T03500143  RH  029%=      5-min Rain = 0
KQU1 041946Z 11006KT 35/15 A30 RMK A01 T03480146  RH  030%=      5-min Rain = 0
KQU1 041947Z 12009KT 35/14 A30 RMK A01 T03470144  RH  030%=      5-min Rain = 0
KQU1 041948Z 12012KT 35/14 A30 RMK A01 T03450143  RH  030%=      5-min Rain = 0
KQU1 041949Z 07010KT 34/14 A30 RMK A01 T03430139  RH  029%=      5-min Rain = 0
KQU1 041950Z 07006KT 34/14 A30 RMK A01 T03410142  RH  030%=      5-min Rain = 0
KQU1 041951Z 09007KT 34/14 A30 RMK A01 T03410142  RH  030%=      5-min Rain = 0
KQU1 041952Z 09005KT 34/15 A30 RMK A01 T03420145  RH  031%=      5-min Rain = 0
KQU1 041953Z 12004KT 34/14 A30 RMK A01 T03430144  RH  030%=      5-min Rain = 0
KQU1 041954Z 10006KT 34/14 A30 RMK A01 T03430144  RH  030%=      5-min Rain = 0
KQU1 041955Z 10005KT 34/14 A30 RMK A01 T03420140  RH  030%=      5-min Rain = 0
KQU1 041956Z 09010G18KT 34/14 A30 RMK A01 T03410144  RH  030%=      5-min Rain = 0
KQU1 041957Z 08005KT 34/14 A30 RMK A01 T03390143  RH  031%=      5-min Rain = 0
KQU1 041958Z 10008KT 34/14 A30 RMK A01 T03370141  RH  031%=      5-min Rain = 0
KQU1 041959Z 10006KT 34/14 A30 RMK A01 T03370138  RH  030%=      5-min Rain = 0
KQU1 042000Z 12007KT 34/14 A30 RMK A01 T03360139  RH  031%=      5-min Rain = 0
KQU1 042001Z 11006KT 34/14 A30 RMK A01 T03360136  RH  030%=      5-min Rain = 0
KQU1 042002Z 12005KT 34/14 A30 RMK A01 T03350138  RH  030%=      5-min Rain = 0
KQU1 042003Z 13004KT 34/14 A30 RMK A01 T03350141  RH  031%=      5-min Rain = 0
KQU1 042004Z 14004KT 34/14 A30 RMK A01 T03350143  RH  031%=      5-min Rain = 0
KQU1 042005Z 14006KT 34/14 A30 RMK A01 T03350141  RH  031%=      5-min Rain = 0
KQU1 042006Z 16005KT 34/14 A30 RMK A01 T03350137  RH  030%=      5-min Rain = 0
KQU1 042007Z 16004KT 34/14 A30 RMK A01 T03350137  RH  030%=      5-min Rain = 0
KQU1 042008Z 16004KT 33/14 A30 RMK A01 T03340137  RH  030%=      5-min Rain = 0
KQU1 042009Z 16003KT 33/14 A30 RMK A01 T03340140  RH  031%=      5-min Rain = 0
KQU1 042010Z 16003KT 33/14 A30 RMK A01 T03340135  RH  030%=      5-min Rain = 0
KQU1 042011Z 13004KT 33/14 A30 RMK A01 T03340141  RH  031%=      5-min Rain = 0
KQU1 042012Z 15004KT 33/14 A30 RMK A01 T03340140  RH  031%=      5-min Rain = 0
KQU1 042013Z 13005KT 33/14 A2999 RMK A01 T03340138  RH  031%=      5-min Rain = 0
KQU1 042014Z 15005KT 33/14 A2999 RMK A01 T03340140  RH  031%=      5-min Rain = 0
KQU1 042015Z 15006KT 33/14 A2999 RMK A01 T03340140  RH  031%=      5-min Rain = 0
KQU1 042016Z 17005KT 33/14 A2999 RMK A01 T03330138  RH  031%=      5-min Rain = 0
KQU1 042017Z 18006KT 33/14 A2999 RMK A01 T03330135  RH  030%=      5-min Rain = 0
KQU1 042018Z 18005KT 33/13 A2999 RMK A01 T03330134  RH  030%=      5-min Rain = 0
KQU1 042019Z 22006KT 33/13 A2999 RMK A01 T03340133  RH  030%=      5-min Rain = 0
KQU1 042020Z 23007KT 34/13 A2999 RMK A01 T03350134  RH  030%=      5-min Rain = 0
KQU1 042021Z 25008KT 34/14 A2999 RMK A01 T03360135  RH  030%=      5-min Rain = 0
KQU1 042022Z 25007KT 34/13 A2999 RMK A01 T03350130  RH  029%=      5-min Rain = 0
KQU1 042023Z 26006KT 33/13 A30 RMK A01 T03340126  RH  028%=      5-min Rain = 0
KQU1 042024Z 26005KT 33/13 A30 RMK A01 T03320127  RH  029%=      5-min Rain = 0
KQU1 042025Z 23007KT 33/13 A30 RMK A01 T03320128  RH  029%=      5-min Rain = 0
KQU1 042026Z 25008KT 33/13 A30 RMK A01 T03330129  RH  029%=      5-min Rain = 0
KQU1 042027Z 25007KT 33/13 A30 RMK A01 T03320133  RH  030%=      5-min Rain = 0
KQU1 042028Z 23011G16KT 33/12 A2999 RMK A01 T03310123  RH  028%=      5-min Rain = 0
KQU1 042029Z 24015KT 33/13 A2999 RMK A01 T03290128  RH  029%=      5-min Rain = 0
KQU1 042030Z 24017KT 32/15 A30 RMK A01 T03240146  RH  034%=      5-min Rain = 0
KQU1 042031Z 24017KT 32/15 A30 RMK A01 T03170150  RH  036%=      5-min Rain = 0
KQU1 042032Z 24018KT 31/14 A30 RMK A01 T03130144  RH  036%=      5-min Rain = 0
KQU1 042033Z 24019KT 31/15 A30 RMK A01 T03100146  RH  037%=      5-min Rain = 0
KQU1 042034Z 24019KT 31/16 A30 RMK A01 T03050160  RH  042%=      5-min Rain = 0
KQU1 042035Z 25019KT 30/17 A30 RMK A01 T02980171  RH  047%=      5-min Rain = 0
KQU1 042036Z 25019KT 29/18 A30 RMK A01 T02910177  RH  050%=      5-min Rain = 0
KQU1 042037Z 26018KT 29/18 A3001 RMK A01 T02850175  RH  051%=      5-min Rain = 0
KQU1 042038Z 26018KT 28/18 A3001 RMK A01 T02820176  RH  053%=      5-min Rain = 0
KQU1 042039Z 27016KT 28/18 A3001 RMK A01 T02780178  RH  054%=      5-min Rain = 0
KQU1 042040Z 28020KT 28/17 A3001 RMK A01 T02750168  RH  052%=      5-min Rain = 0
KQU1 042041Z 26019KT 27/16 A3001 RMK A01 T02720161  RH  050%=      5-min Rain = 0
KQU1 042042Z 27017KT 27/16 A3001 RMK A01 T02700164  RH  052%=      5-min Rain = 0
KQU1 042043Z 28018KT 27/16 A3001 RMK A01 T02670162  RH  052%=      5-min Rain = 0
KQU1 042044Z 27016KT 27/16 A3001 RMK A01 T02660163  RH  053%=      5-min Rain = 0
KQU1 042045Z 27013KT 26/17 A3001 RMK A01 T02640169  RH  056%=      5-min Rain = 0
KQU1 042046Z 28015KT 26/17 A3001 RMK A01 T02620169  RH  056%=      5-min Rain = 0
KQU1 042047Z 28012KT 26/17 A3001 RMK A01 T02620172  RH  058%=      5-min Rain = 0
KQU1 042048Z 27012KT 26/18 A3001 RMK A01 T02600177  RH  060%=      5-min Rain = 0
KQU1 042049Z 26011KT 26/18 A3001 RMK A01 T02590183  RH  063%=      5-min Rain = 0
KQU1 042050Z 25011KT 26/18 A30 RMK A01 T02600179  RH  061%=      5-min Rain = 0
KQU1 042051Z 22013KT 26/18 A30 RMK A01 T02620175  RH  059%=      5-min Rain = 0
KQU1 042052Z 21009KT 27/17 A30 RMK A01 T02660171  RH  056%=      5-min Rain = 0
KQU1 042053Z 19005KT 27/16 A30 RMK A01 T02710156  RH  049%=      5-min Rain = 0
KQU1 042054Z 21004KT 28/17 A30 RMK A01 T02770170  RH  052%=      5-min Rain = 0
KQU1 042055Z 22006KT 28/18 A30 RMK A01 T02780177  RH  054%=      5-min Rain = 0
KQU1 042056Z 22007KT 28/19 A2999 RMK A01 T02770186  RH  058%=      5-min Rain = 0
KQU1 042057Z 21008KT 28/18 A2999 RMK A01 T02760178  RH  055%=      5-min Rain = 0
KQU1 042058Z 20008KT 28/17 A2999 RMK A01 T02780166  RH  051%=      5-min Rain = 0
KQU1 042059Z 21009KT 28/18 A2999 RMK A01 T02800180  RH  055%=      5-min Rain = 0
KQU1 042100Z 20009KT 28/18 A2999 RMK A01 T02800179  RH  054%=      5-min Rain = 0
KQU1 042101Z 20010KT 28/18 A2999 RMK A01 T02800177  RH  053%=      5-min Rain = 0
KQU1 042102Z 21010KT 28/19 A2999 RMK A01 T02800185  RH  057%=      5-min Rain = 0
KQU1 042103Z 20011KT 28/19 A2999 RMK A01 T02780185  RH  057%=      5-min Rain = 0
KQU1 042104Z 19010KT 28/18 A2999 RMK A01 T02770179  RH  055%=      5-min Rain = 0
KQU1 042105Z 19010KT 28/17 A2999 RMK A01 T02790172  RH  052%=      5-min Rain = 0
KQU1 042106Z 20009KT 28/18 A2999 RMK A01 T02820182  RH  055%=      5-min Rain = 0
KQU1 042107Z 19010KT 28/19 A2999 RMK A01 T02820192  RH  058%=      5-min Rain = 0
KQU1 042108Z 20014KT 28/20 A2999 RMK A01 T02790195  RH  060%=      5-min Rain = 0
KQU1 042109Z 20014KT 27/20 A2999 RMK A01 T02730199  RH  064%=      5-min Rain = 0
KQU1 042110Z 21013KT 27/20 A2999 RMK A01 T02670202  RH  068%=      5-min Rain = 0
KQU1 042111Z 21013KT 26/20 A2999 RMK A01 T02630199  RH  068%=      5-min Rain = 0
KQU1 042112Z 21012KT 26/20 A30 RMK A01 T02600199  RH  069%=      5-min Rain = 0
KQU1 042113Z 21012KT 26/20 A30 RMK A01 T02580198  RH  069%=      5-min Rain = 0
KQU1 042114Z 21011KT 26/20 A30 RMK A01 T02580195  RH  068%=      5-min Rain = 0
KQU1 042115Z 22011KT 26/20 A30 RMK A01 T02580195  RH  068%=      5-min Rain = 0
KQU1 042116Z 22011KT 26/19 A3001 RMK A01 T02590192  RH  067%=      5-min Rain = 0
KQU1 042117Z 23010KT 26/20 A3001 RMK A01 T02590195  RH  068%=      5-min Rain = 0
KQU1 042118Z 24010KT 26/20 A3001 RMK A01 T02580200  RH  070%=      5-min Rain = 0
KQU1 042119Z 25010KT 26/20 A3001 RMK A01 T02560199  RH  070%=      5-min Rain = 0
KQU1 042120Z 27012KT 26/20 A3001 RMK A01 T02550198  RH  071%=      5-min Rain = 0
KQU1 042121Z 28011KT 25/20 A3001 RMK A01 T02540197  RH  071%=      5-min Rain = 0
KQU1 042122Z 27010KT 25/20 A3002 RMK A01 T02530199  RH  072%=      5-min Rain = 0
KQU1 042123Z 26010KT 25/20 A3002 RMK A01 T02520200  RH  073%=      5-min Rain = 0
KQU1 042124Z 27008KT 25/20 A3002 RMK A01 T02510198  RH  072%=      5-min Rain = 0
KQU1 042125Z 26009KT 25/20 A3002 RMK A01 T02510195  RH  071%=      5-min Rain = 0
KQU1 042126Z 26010KT 25/19 A3001 RMK A01 T02510192  RH  070%=      5-min Rain = 0
KQU1 042127Z 26009KT 25/19 A3001 RMK A01 T02510192  RH  070%=      5-min Rain = 0
KQU1 042128Z 26008KT 25/19 A3001 RMK A01 T02510193  RH  070%=      5-min Rain = 0
KQU1 042129Z 27008KT 25/20 A3001 RMK A01 T02510195  RH  071%=      5-min Rain = 0
KQU1 042130Z 27008KT 25/20 A3001 RMK A01 T02510196  RH  072%=      5-min Rain = 0
KQU1 042131Z 27009KT 25/19 A3001 RMK A01 T02500194  RH  071%=      5-min Rain = 0
KQU1 042132Z 27008KT 25/20 A3001 RMK A01 T02500196  RH  072%=      5-min Rain = 0
KQU1 042133Z 27007KT 25/20 A3001 RMK A01 T02490197  RH  073%=      5-min Rain = 0
KQU1 042134Z 27006KT 25/20 A3001 RMK A01 T02480199  RH  074%=      5-min Rain = 0.01
KQU1 042135Z 27008KT 25/20 A3001 RMK A01 T02470200  RH  075%=      5-min Rain = 0
KQU1 042136Z 27007KT 25/20 A3001 RMK A01 T02470200  RH  075%=      5-min Rain = 0
KQU1 042137Z 27007KT 25/20 A3001 RMK A01 T02460200  RH  076%=      5-min Rain = 0
KQU1 042138Z 25008KT 25/20 A30 RMK A01 T02450198  RH  075%=      5-min Rain = 0
KQU1 042139Z 25010KT 25/20 A30 RMK A01 T02450197  RH  075%=      5-min Rain = 0
KQU1 042140Z 25009KT 25/20 A30 RMK A01 T02450197  RH  075%=      5-min Rain = 0
KQU1 042141Z 24009KT 25/20 A30 RMK A01 T02450199  RH  076%=      5-min Rain = 0
KQU1 042142Z 24009KT 25/20 A30 RMK A01 T02450201  RH  076%=      5-min Rain = 0
KQU1 042143Z 23009KT 25/20 A30 RMK A01 T02450200  RH  076%=      5-min Rain = 0
KQU1 042144Z 23008KT 25/20 A30 RMK A01 T02460201  RH  076%=      5-min Rain = 0
KQU1 042145Z 23008KT 25/20 A30 RMK A01 T02470202  RH  076%=      5-min Rain = 0
KQU1 042146Z 23008KT 25/20 A30 RMK A01 T02480203  RH  076%=      5-min Rain = 0
KQU1 042147Z 22008KT 25/20 A30 RMK A01 T02490201  RH  075%=      5-min Rain = 0
KQU1 042148Z 21008KT 25/20 A2999 RMK A01 T02510201  RH  074%=      5-min Rain = 0
KQU1 042149Z 21008KT 25/20 A2999 RMK A01 T02520199  RH  072%=      5-min Rain = 0
KQU1 042150Z 21007KT 26/20 A2999 RMK A01 T02550202  RH  072%=      5-min Rain = 0
KQU1 042151Z 21007KT 26/20 A2999 RMK A01 T02570198  RH  070%=      5-min Rain = 0
KQU1 042152Z 21006KT 26/20 A2999 RMK A01 T02600198  RH  069%=      5-min Rain = 0
KQU1 042153Z 21004KT 26/20 A2999 RMK A01 T02620199  RH  068%=      5-min Rain = 0
KQU1 042154Z 22003KT 26/20 A2999 RMK A01 T02640200  RH  068%=      5-min Rain = 0
KQU1 042155Z 26002KT 27/20 A2999 RMK A01 T02670203  RH  068%=      5-min Rain = 0
KQU1 042156Z 36004KT 27/21 A2999 RMK A01 T02690213  RH  071%=      5-min Rain = 0
KQU1 042157Z 01005KT 27/21 A2999 RMK A01 T02680212  RH  072%=      5-min Rain = 0
KQU1 042158Z 02006KT 27/21 A2999 RMK A01 T02650209  RH  071%=      5-min Rain = 0
KQU1 042159Z 04006KT 26/21 A2999 RMK A01 T02620208  RH  072%=      5-min Rain = 0
KQU1 042200Z 04006KT 26/21 A2999 RMK A01 T02600205  RH  071%=      5-min Rain = 0
KQU1 042201Z 05007KT 26/20 A2999 RMK A01 T02590204  RH  072%=      5-min Rain = 0
KQU1 042202Z 04005KT 26/20 A2999 RMK A01 T02590204  RH  072%=      5-min Rain = 0
KQU1 042203Z 04005KT 26/20 A2999 RMK A01 T02590201  RH  071%=      5-min Rain = 0
KQU1 042204Z 04006KT 26/20 A2999 RMK A01 T02590200  RH  070%=      5-min Rain = 0
KQU1 042205Z 03005KT 26/20 A2999 RMK A01 T02600198  RH  069%=      5-min Rain = 0
KQU1 042206Z 03002KT 26/20 A2999 RMK A01 T02610199  RH  069%=      5-min Rain = 0
KQU1 042207Z 35001KT 26/20 A2999 RMK A01 T02620202  RH  070%=      5-min Rain = 0
KQU1 042208Z 01003KT 26/21 A2999 RMK A01 T02640206  RH  070%=      5-min Rain = 0
KQU1 042209Z 01002KT 27/20 A2999 RMK A01 T02660203  RH  068%=      5-min Rain = 0
KQU1 042210Z 35004KT 27/20 A2999 RMK A01 T02680204  RH  068%=      5-min Rain = 0
KQU1 042211Z 35004KT 27/21 A2999 RMK A01 T02680208  RH  070%=      5-min Rain = 0
KQU1 042212Z 35004KT 27/21 A2999 RMK A01 T02660206  RH  069%=      5-min Rain = 0
KQU1 042213Z 35006KT 27/20 A2999 RMK A01 T02650203  RH  069%=      5-min Rain = 0
KQU1 042214Z 36005KT 27/20 A2999 RMK A01 T02650198  RH  067%=      5-min Rain = 0
KQU1 042215Z 36003KT 27/21 A2999 RMK A01 T02660205  RH  069%=      5-min Rain = 0
KQU1 042216Z 03002KT 27/21 A2999 RMK A01 T02690208  RH  069%=      5-min Rain = 0
KQU1 042217Z 02003KT 27/21 A2999 RMK A01 T02720205  RH  067%=      5-min Rain = 0
KQU1 042218Z 05003KT 27/20 A2999 RMK A01 T02730201  RH  065%=      5-min Rain = 0
KQU1 042219Z 06003KT 27/20 A2999 RMK A01 T02730199  RH  064%=      5-min Rain = 0
KQU1 042220Z 08002KT 27/20 A2999 RMK A01 T02740200  RH  064%=      5-min Rain = 0
KQU1 042221Z 07004KT 28/20 A2999 RMK A01 T02750199  RH  063%=      5-min Rain = 0
KQU1 042222Z 07004KT 28/20 A2999 RMK A01 T02760196  RH  062%=      5-min Rain = 0
KQU1 042223Z 06005KT 28/19 A2999 RMK A01 T02770194  RH  061%=      5-min Rain = 0
KQU1 042224Z 06005KT 28/20 A2999 RMK A01 T02770199  RH  062%=      5-min Rain = 0
KQU1 042225Z 05006KT 28/20 A2999 RMK A01 T02770195  RH  061%=      5-min Rain = 0
KQU1 042226Z 04008KT 28/19 A2999 RMK A01 T02770194  RH  061%=      5-min Rain = 0
KQU1 042227Z 04010KT 28/20 A2999 RMK A01 T02760197  RH  062%=      5-min Rain = 0
KQU1 042228Z 04011KT 27/20 A2999 RMK A01 T02740202  RH  065%=      5-min Rain = 0
KQU1 042229Z 04010KT 27/20 A2999 RMK A01 T02700199  RH  065%=      5-min Rain = 0
KQU1 042230Z 03008KT 27/19 A2999 RMK A01 T02670192  RH  063%=      5-min Rain = 0
KQU1 042231Z 03007G13KT 27/19 A2999 RMK A01 T02660193  RH  064%=      5-min Rain = 0
KQU1 042232Z 03007KT 27/19 A2999 RMK A01 T02650189  RH  063%=      5-min Rain = 0
KQU1 042233Z 04008KT 27/19 A2999 RMK A01 T02650190  RH  063%=      5-min Rain = 0
KQU1 042234Z 04007KT 26/19 A2999 RMK A01 T02640193  RH  065%=      5-min Rain = 0
KQU1 042235Z 05005KT 26/20 A2998 RMK A01 T02640196  RH  066%=      5-min Rain = 0
KQU1 042236Z 02005KT 26/20 A2998 RMK A01 T02640197  RH  067%=      5-min Rain = 0
KQU1 042237Z 00001KT 27/20 A2998 RMK A01 T02650202  RH  068%=      5-min Rain = 0
KQU1 042238Z 02004KT 27/20 A2998 RMK A01 T02680202  RH  067%=      5-min Rain = 0
KQU1 042239Z 00004KT 27/20 A2998 RMK A01 T02700201  RH  066%=      5-min Rain = 0
KQU1 042240Z 36004KT 27/20 A2998 RMK A01 T02720203  RH  066%=      5-min Rain = 0
KQU1 042241Z 35005KT 27/20 A2998 RMK A01 T02740202  RH  065%=      5-min Rain = 0
KQU1 042242Z 36004KT 27/20 A2998 RMK A01 T02740201  RH  064%=      5-min Rain = 0
KQU1 042243Z 01003KT 28/20 A2998 RMK A01 T02750201  RH  064%=      5-min Rain = 0
KQU1 042244Z 01003KT 28/20 A2998 RMK A01 T02770199  RH  063%=      5-min Rain = 0
KQU1 042245Z 02003KT 28/20 A2998 RMK A01 T02780195  RH  061%=      5-min Rain = 0
KQU1 042246Z 03002KT 28/20 A2998 RMK A01 T02790199  RH  062%=      5-min Rain = 0
KQU1 042247Z 03002KT 28/20 A2998 RMK A01 T02800200  RH  062%=      5-min Rain = 0
KQU1 042248Z 04004KT 28/20 A2997 RMK A01 T02810199  RH  061%=      5-min Rain = 0
KQU1 042249Z 03004KT 28/20 A2997 RMK A01 T02820201  RH  061%=      5-min Rain = 0
KQU1 042250Z 05005KT 28/20 A2997 RMK A01 T02820198  RH  060%=      5-min Rain = 0
KQU1 042251Z 04004KT 28/20 A2997 RMK A01 T02820196  RH  060%=      5-min Rain = 0
KQU1 042252Z 02003KT 28/20 A2997 RMK A01 T02830196  RH  059%=      5-min Rain = 0
KQU1 042253Z 01003KT 28/20 A2997 RMK A01 T02840198  RH  059%=      5-min Rain = 0
KQU1 042254Z 00002KT 29/20 A2997 RMK A01 T02860199  RH  059%=      5-min Rain = 0
KQU1 042255Z 03001KT 29/20 A2997 RMK A01 T02890198  RH  058%=      5-min Rain = 0
KQU1 042256Z 04003KT 29/19 A2997 RMK A01 T02910192  RH  055%=      5-min Rain = 0
KQU1 042257Z 02001KT 29/19 A2997 RMK A01 T02910192  RH  055%=      5-min Rain = 0
KQU1 042258Z 02003KT 29/19 A2997 RMK A01 T02910189  RH  054%=      5-min Rain = 0
KQU1 042259Z 05004KT 29/19 A2997 RMK A01 T02920192  RH  055%=      5-min Rain = 0
KQU1 042300Z 05004KT 29/18 A2997 RMK A01 T02920182  RH  052%=      5-min Rain = 0
KQU1 042301Z 05004KT 29/19 A2998 RMK A01 T02910188  RH  054%=      5-min Rain = 0
KQU1 042302Z 02003KT 29/20 A2998 RMK A01 T02910196  RH  056%=      5-min Rain = 0
KQU1 042303Z 02005KT 29/19 A2998 RMK A01 T02930191  RH  054%=      5-min Rain = 0
KQU1 042304Z 01005KT 29/19 A2998 RMK A01 T02930189  RH  054%=      5-min Rain = 0
KQU1 042305Z 01004KT 29/19 A2998 RMK A01 T02940192  RH  054%=      5-min Rain = 0
KQU1 042306Z 03003KT 30/19 A2998 RMK A01 T02950194  RH  054%=      5-min Rain = 0
KQU1 042307Z 01002KT 30/19 A2998 RMK A01 T02980192  RH  053%=      5-min Rain = 0
KQU1 042308Z 01005KT 30/19 A2998 RMK A01 T02980191  RH  053%=      5-min Rain = 0
KQU1 042309Z 35006KT 30/19 A2998 RMK A01 T02980191  RH  053%=      5-min Rain = 0
KQU1 042310Z 01006KT 30/19 A2998 RMK A01 T02970191  RH  053%=      5-min Rain = 0
KQU1 042311Z 00006KT 30/19 A2998 RMK A01 T02960191  RH  053%=      5-min Rain = 0
KQU1 042312Z 01006KT 29/19 A2999 RMK A01 T02940188  RH  053%=      5-min Rain = 0
KQU1 042313Z 03005KT 29/19 A2999 RMK A01 T02930191  RH  054%=      5-min Rain = 0
KQU1 042314Z 04015G20KT 29/20 A2999 RMK A01 T02930199  RH  057%=      5-min Rain = 0
KQU1 042315Z 04017KT 29/20 A2999 RMK A01 T02880198  RH  058%=      5-min Rain = 0
KQU1 042316Z 05017G22KT 28/20 A30 RMK A01 T02830195  RH  059%=      5-min Rain = 0
KQU1 042317Z 07013G18KT 28/19 A30 RMK A01 T02790192  RH  059%=      5-min Rain = 0
KQU1 042318Z 07012KT 28/19 A30 RMK A01 T02770191  RH  059%=      5-min Rain = 0
KQU1 042319Z 06009KT 28/19 A30 RMK A01 T02750193  RH  061%=      5-min Rain = 0
KQU1 042320Z 06009KT 27/19 A30 RMK A01 T02730193  RH  062%=      5-min Rain = 0
KQU1 042321Z 05007KT 27/20 A30 RMK A01 T02710197  RH  064%=      5-min Rain = 0
KQU1 042322Z 05009KT 27/20 A30 RMK A01 T02700199  RH  065%=      5-min Rain = 0
KQU1 042323Z 05011KT 27/20 A30 RMK A01 T02680196  RH  065%=      5-min Rain = 0
KQU1 042324Z 05010KT 27/20 A30 RMK A01 T02660195  RH  065%=      5-min Rain = 0
KQU1 042325Z 06012KT 27/19 A30 RMK A01 T02650193  RH  065%=      5-min Rain = 0
KQU1 042326Z 06009KT 27/19 A30 RMK A01 T02650193  RH  065%=      5-min Rain = 0
KQU1 042327Z 06009KT 27/19 A2999 RMK A01 T02650192  RH  064%=      5-min Rain = 0
KQU1 042328Z 06010KT 26/19 A2999 RMK A01 T02640186  RH  062%=      5-min Rain = 0
KQU1 042329Z 07013KT 26/18 A2999 RMK A01 T02630182  RH  061%=      5-min Rain = 0
KQU1 042330Z 06009KT 26/18 A2999 RMK A01 T02620183  RH  062%=      5-min Rain = 0
KQU1 042331Z 07010KT 26/19 A2999 RMK A01 T02620185  RH  062%=      5-min Rain = 0
KQU1 042332Z 06010KT 26/18 A2999 RMK A01 T02630184  RH  062%=      5-min Rain = 0
KQU1 042333Z 06007KT 26/18 A2999 RMK A01 T02620184  RH  062%=      5-min Rain = 0
KQU1 042334Z 06008G13KT 26/18 A2999 RMK A01 T02610184  RH  062%=      5-min Rain = 0
KQU1 042335Z 06010KT 26/18 A2999 RMK A01 T02610183  RH  062%=      5-min Rain = 0
KQU1 042336Z 06008KT 26/18 A2999 RMK A01 T02620184  RH  062%=      5-min Rain = 0
KQU1 042337Z 05007KT 26/19 A2998 RMK A01 T02630185  RH  062%=      5-min Rain = 0
KQU1 042338Z 06007KT 26/19 A2998 RMK A01 T02640185  RH  062%=      5-min Rain = 0
KQU1 042339Z 05007KT 27/19 A2998 RMK A01 T02650185  RH  062%=      5-min Rain = 0.01
KQU1 042340Z 05006KT 27/19 A2998 RMK A01 T02650186  RH  062%=      5-min Rain = 0
KQU1 042341Z 05007KT 27/19 A2998 RMK A01 T02650185  RH  062%=      5-min Rain = 0
KQU1 042342Z 05006KT 27/19 A2998 RMK A01 T02650186  RH  062%=      5-min Rain = 0
KQU1 042343Z 06008KT 27/18 A2998 RMK A01 T02650184  RH  061%=      5-min Rain = 0
KQU1 042344Z 05008KT 27/19 A2998 RMK A01 T02650185  RH  062%=      5-min Rain = 0
KQU1 042345Z 06009KT 26/18 A2998 RMK A01 T02640184  RH  061%=      5-min Rain = 0
KQU1 042346Z 05008KT 26/19 A2998 RMK A01 T02630185  RH  062%=      5-min Rain = 0
KQU1 042347Z 04008KT 26/19 A2998 RMK A01 T02640187  RH  063%=      5-min Rain = 0
KQU1 042348Z 04011KT 27/19 A2998 RMK A01 T02650186  RH  062%=      5-min Rain = 0
KQU1 042349Z 05011KT 26/19 A2998 RMK A01 T02640186  RH  062%=      5-min Rain = 0
KQU1 042350Z 05012KT 26/19 A2998 RMK A01 T02630187  RH  063%=      5-min Rain = 0
KQU1 042351Z 04011KT 26/19 A2998 RMK A01 T02630187  RH  063%=      5-min Rain = 0
KQU1 042352Z 04008KT 26/19 A2999 RMK A01 T02620190  RH  064%=      5-min Rain = 0
KQU1 042353Z 05008G13KT 26/19 A2998 RMK A01 T02640189  RH  064%=      5-min Rain = 0
KQU1 042354Z 05008KT 26/19 A2998 RMK A01 T02630188  RH  063%=      5-min Rain = 0
KQU1 042355Z 06006KT 26/19 A2998 RMK A01 T02630189  RH  064%=      5-min Rain = 0
KQU1 042356Z 07010KT 26/19 A2998 RMK A01 T02640190  RH  064%=      5-min Rain = 0
KQU1 042357Z 07009KT 27/19 A2998 RMK A01 T02650187  RH  062%=      5-min Rain = 0
KQU1 042358Z 06007KT 27/19 A2998 RMK A01 T02650189  RH  063%=      5-min Rain = 0
KQU1 042359Z 07007KT 27/19 A2998 RMK A01 T02660190  RH  063%=      5-min Rain = 0
KQU1 050000Z 07008KT 27/19 A2998 RMK A01 T02660190  RH  063%=      5-min Rain = 0
KQU1 050001Z 06008KT 27/19 A2998 RMK A01 T02670191  RH  063%=      5-min Rain = 0
KQU1 050002Z 06008KT 27/19 A2998 RMK A01 T02680191  RH  063%=      5-min Rain = 0
KQU1 050003Z 08009KT 27/19 A2998 RMK A01 T02670191  RH  063%=      5-min Rain = 0
KQU1 050004Z 08009KT 27/19 A2998 RMK A01 T02680191  RH  063%=      5-min Rain = 0
KQU1 050005Z 08008KT 27/19 A2998 RMK A01 T02680189  RH  062%=      5-min Rain = 0
KQU1 050006Z 08009KT 27/19 A2998 RMK A01 T02690188  RH  061%=      5-min Rain = 0
KQU1 050007Z 08007KT 27/19 A2998 RMK A01 T02690187  RH  061%=      5-min Rain = 0
KQU1 050008Z 07007KT 27/19 A2998 RMK A01 T02690189  RH  062%=      5-min Rain = 0
KQU1 050009Z 07007KT 27/19 A2998 RMK A01 T02690188  RH  061%=      5-min Rain = 0
KQU1 050010Z 08006KT 27/19 A2998 RMK A01 T02690189  RH  062%=      5-min Rain = 0
KQU1 050011Z 08006KT 27/19 A2998 RMK A01 T02690189  RH  061%=      5-min Rain = 0
KQU1 050012Z 08007KT 27/19 A2998 RMK A01 T02700187  RH  060%=      5-min Rain = 0
KQU1 050013Z 09009KT 27/19 A2998 RMK A01 T02710185  RH  059%=      5-min Rain = 0
KQU1 050014Z 09007KT 27/19 A2998 RMK A01 T02710186  RH  060%=      5-min Rain = 0
KQU1 050015Z 11006KT 27/19 A2999 RMK A01 T02720188  RH  060%=      5-min Rain = 0
KQU1 050016Z 09008KT 27/19 A2999 RMK A01 T02730186  RH  059%=      5-min Rain = 0
KQU1 050017Z 10009KT 27/19 A2999 RMK A01 T02730186  RH  059%=      5-min Rain = 0
KQU1 050018Z 11009KT 27/19 A2999 RMK A01 T02730186  RH  059%=      5-min Rain = 0
KQU1 050019Z 11008KT 27/19 A2999 RMK A01 T02740187  RH  059%=      5-min Rain = 0
KQU1 050020Z 10010KT 27/19 A2999 RMK A01 T02740187  RH  059%=      5-min Rain = 0
KQU1 050021Z 11009KT 28/19 A2999 RMK A01 T02750187  RH  059%=      5-min Rain = 0
KQU1 050022Z 12011KT 28/19 A2999 RMK A01 T02750186  RH  058%=      5-min Rain = 0
KQU1 050023Z 11010KT 28/19 A2999 RMK A01 T02750187  RH  058%=      5-min Rain = 0
KQU1 050024Z 12012KT 28/19 A2998 RMK A01 T02750185  RH  058%=      5-min Rain = 0
KQU1 050025Z 11010KT 28/19 A2998 RMK A01 T02750186  RH  058%=      5-min Rain = 0
KQU1 050026Z 11012KT 28/19 A2998 RMK A01 T02750185  RH  058%=      5-min Rain = 0
KQU1 050027Z 11010KT 27/19 A2998 RMK A01 T02740186  RH  059%=      5-min Rain = 0
KQU1 050028Z 10010KT 27/19 A2998 RMK A01 T02740185  RH  058%=      5-min Rain = 0
KQU1 050029Z 11009KT 27/19 A2998 RMK A01 T02730185  RH  058%=      5-min Rain = 0
KQU1 050030Z 10010KT 27/18 A2998 RMK A01 T02730184  RH  059%=      5-min Rain = 0
KQU1 050031Z 10010KT 27/19 A2998 RMK A01 T02720185  RH  059%=      5-min Rain = 0
KQU1 050032Z 11011KT 27/18 A2998 RMK A01 T02730184  RH  058%=      5-min Rain = 0
KQU1 050033Z 10011KT 27/18 A2998 RMK A01 T02730184  RH  058%=      5-min Rain = 0
KQU1 050034Z 10009KT 27/18 A2998 RMK A01 T02730184  RH  058%=      5-min Rain = 0
KQU1 050035Z 10010KT 27/19 A2998 RMK A01 T02730185  RH  059%=      5-min Rain = 0
KQU1 050036Z 11009KT 27/18 A2998 RMK A01 T02730184  RH  058%=      5-min Rain = 0
KQU1 050037Z 10009KT 27/19 A2998 RMK A01 T02740185  RH  058%=      5-min Rain = 0
KQU1 050038Z 10010KT 27/18 A2998 RMK A01 T02730184  RH  058%=      5-min Rain = 0
KQU1 050039Z 10011KT 27/18 A2998 RMK A01 T02730183  RH  058%=      5-min Rain = 0
KQU1 050040Z 11010KT 27/18 A2998 RMK A01 T02730184  RH  058%=      5-min Rain = 0
KQU1 050041Z 11010KT 27/18 A2998 RMK A01 T02730184  RH  058%=      5-min Rain = 0
KQU1 050042Z 10010KT 27/18 A2998 RMK A01 T02730184  RH  058%=      5-min Rain = 0
KQU1 050043Z 10010KT 27/19 A2998 RMK A01 T02740185  RH  059%=      5-min Rain = 0
KQU1 050044Z 09010KT 27/19 A2998 RMK A01 T02740185  RH  058%=      5-min Rain = 0
KQU1 050045Z 09010KT 27/19 A2998 RMK A01 T02740185  RH  058%=      5-min Rain = 0
KQU1 050046Z 10010KT 27/18 A2998 RMK A01 T02740184  RH  058%=      5-min Rain = 0
KQU1 050047Z 09009KT 27/19 A2998 RMK A01 T02740185  RH  058%=      5-min Rain = 0
KQU1 050048Z 09011KT 27/19 A2999 RMK A01 T02740185  RH  058%=      5-min Rain = 0
KQU1 050049Z 09010KT 27/19 A2999 RMK A01 T02730185  RH  058%=      5-min Rain = 0
KQU1 050050Z 08011KT 27/18 A2998 RMK A01 T02730184  RH  059%=      5-min Rain = 0
KQU1 050051Z 09011KT 27/19 A2998 RMK A01 T02710185  RH  059%=      5-min Rain = 0
KQU1 050052Z 09008KT 27/19 A2998 RMK A01 T02710185  RH  059%=      5-min Rain = 0
KQU1 050053Z 08010KT 27/19 A2998 RMK A01 T02710185  RH  059%=      5-min Rain = 0
KQU1 050054Z 08009KT 27/19 A2998 RMK A01 T02700185  RH  060%=      5-min Rain = 0
KQU1 050055Z 08010KT 27/19 A2999 RMK A01 T02690185  RH  060%=      5-min Rain = 0
KQU1 050056Z 08009KT 27/19 A2999 RMK A01 T02680185  RH  060%=      5-min Rain = 0
KQU1 050057Z 09009KT 27/19 A2999 RMK A01 T02680186  RH  061%=      5-min Rain = 0
KQU1 050058Z 10009G14KT 27/19 A2999 RMK A01 T02680186  RH  061%=      5-min Rain = 0
KQU1 050059Z 08010KT 27/19 A2999 RMK A01 T02690185  RH  060%=      5-min Rain = 0
KQU1 050100Z 09010KT 27/19 A2999 RMK A01 T02680185  RH  060%=      5-min Rain = 0
KQU1 050101Z 09007KT 27/19 A2999 RMK A01 T02680186  RH  061%=      5-min Rain = 0
KQU1 050102Z 08007KT 27/19 A2999 RMK A01 T02670186  RH  061%=      5-min Rain = 0
KQU1 050103Z 07008KT 27/19 A2999 RMK A01 T02670185  RH  061%=      5-min Rain = 0
KQU1 050104Z 08008KT 27/19 A2999 RMK A01 T02660185  RH  061%=      5-min Rain = 0
KQU1 050105Z 08006KT 27/19 A2999 RMK A01 T02660185  RH  061%=      5-min Rain = 0
KQU1 050106Z 09006KT 27/19 A2999 RMK A01 T02650185  RH  061%=      5-min Rain = 0
KQU1 050107Z 10006KT 27/18 A2999 RMK A01 T02650184  RH  061%=      5-min Rain = 0
KQU1 050108Z 09006KT 26/18 A2999 RMK A01 T02640183  RH  061%=      5-min Rain = 0
KQU1 050109Z 09008KT 26/18 A2999 RMK A01 T02640182  RH  061%=      5-min Rain = 0
KQU1 050110Z 09008KT 26/18 A2999 RMK A01 T02640181  RH  060%=      5-min Rain = 0
KQU1 050111Z 10006KT 26/18 A2999 RMK A01 T02630182  RH  061%=      5-min Rain = 0
KQU1 050112Z 11009KT 26/18 A2999 RMK A01 T02630181  RH  060%=      5-min Rain = 0
KQU1 050113Z 11009KT 26/18 A2999 RMK A01 T02630180  RH  060%=      5-min Rain = 0
KQU1 050114Z 10009KT 26/18 A2999 RMK A01 T02620179  RH  060%=      5-min Rain = 0
KQU1 050115Z 11008KT 26/18 A2999 RMK A01 T02610180  RH  061%=      5-min Rain = 0
KQU1 050116Z 11008KT 26/18 A2999 RMK A01 T02610180  RH  061%=      5-min Rain = 0
KQU1 050117Z 10006KT 26/18 A2999 RMK A01 T02610181  RH  061%=      5-min Rain = 0
KQU1 050118Z 10005KT 26/18 A2999 RMK A01 T02610181  RH  061%=      5-min Rain = 0
KQU1 050119Z 11006KT 26/18 A2999 RMK A01 T02610182  RH  062%=      5-min Rain = 0
KQU1 050120Z 11008KT 26/18 A30 RMK A01 T02610182  RH  062%=      5-min Rain = 0
KQU1 050121Z 12008KT 26/18 A30 RMK A01 T02600183  RH  062%=      5-min Rain = 0
KQU1 050122Z 11007KT 26/18 A30 RMK A01 T02600183  RH  062%=      5-min Rain = 0
KQU1 050123Z 11009KT 26/18 A30 RMK A01 T02600183  RH  062%=      5-min Rain = 0
KQU1 050124Z 11008KT 26/18 A30 RMK A01 T02590183  RH  063%=      5-min Rain = 0
KQU1 050125Z 12008KT 26/18 A30 RMK A01 T02590183  RH  063%=      5-min Rain = 0
KQU1 050126Z 11009KT 26/18 A30 RMK A01 T02590184  RH  063%=      5-min Rain = 0
KQU1 050127Z 11009KT 26/18 A30 RMK A01 T02590184  RH  063%=      5-min Rain = 0
KQU1 050128Z 12007KT 26/18 A30 RMK A01 T02580184  RH  064%=      5-min Rain = 0
KQU1 050129Z 11007KT 26/18 A30 RMK A01 T02580184  RH  064%=      5-min Rain = 0
KQU1 050130Z 11007KT 26/18 A30 RMK A01 T02580184  RH  064%=      5-min Rain = 0
KQU1 050131Z 11006KT 26/19 A30 RMK A01 T02580185  RH  064%=      5-min Rain = 0
KQU1 050132Z 11006KT 26/19 A30 RMK A01 T02580185  RH  064%=      5-min Rain = 0
KQU1 050133Z 12008KT 26/19 A30 RMK A01 T02580185  RH  064%=      5-min Rain = 0
KQU1 050134Z 12007KT 26/19 A30 RMK A01 T02570185  RH  064%=      5-min Rain = 0
KQU1 050135Z 12007KT 26/19 A30 RMK A01 T02570185  RH  064%=      5-min Rain = 0
KQU1 050136Z 12007KT 26/19 A30 RMK A01 T02570185  RH  065%=      5-min Rain = 0
KQU1 050137Z 11006KT 26/19 A30 RMK A01 T02570186  RH  065%=      5-min Rain = 0
KQU1 050138Z 11007KT 26/19 A30 RMK A01 T02560186  RH  065%=      5-min Rain = 0
KQU1 050139Z 11006KT 26/19 A30 RMK A01 T02560186  RH  065%=      5-min Rain = 0
KQU1 050140Z 11007KT 26/19 A30 RMK A01 T02560186  RH  065%=      5-min Rain = 0
KQU1 050141Z 11007KT 26/19 A30 RMK A01 T02560186  RH  065%=      5-min Rain = 0
KQU1 050142Z 12006KT 26/19 A30 RMK A01 T02560186  RH  065%=      5-min Rain = 0
KQU1 050143Z 14005KT 26/19 A30 RMK A01 T02560187  RH  066%=      5-min Rain = 0
KQU1 050144Z 14006KT 26/19 A30 RMK A01 T02550187  RH  066%=      5-min Rain = 0
KQU1 050145Z 12005KT 26/19 A30 RMK A01 T02550187  RH  066%=      5-min Rain = 0
KQU1 050146Z 13006KT 25/19 A30 RMK A01 T02540186  RH  066%=      5-min Rain = 0
KQU1 050147Z 13008KT 25/19 A30 RMK A01 T02540187  RH  066%=      5-min Rain = 0
KQU1 050148Z 12008KT 25/19 A30 RMK A01 T02540187  RH  066%=      5-min Rain = 0
KQU1 050149Z 12008KT 25/19 A30 RMK A01 T02530187  RH  067%=      5-min Rain = 0
KQU1 050150Z 12007KT 25/19 A30 RMK A01 T02530187  RH  067%=      5-min Rain = 0
KQU1 050151Z 12007KT 25/19 A30 RMK A01 T02530187  RH  067%=      5-min Rain = 0
KQU1 050152Z 12007KT 25/19 A30 RMK A01 T02530187  RH  067%=      5-min Rain = 0
KQU1 050153Z 13007KT 25/19 A30 RMK A01 T02520187  RH  067%=      5-min Rain = 0
KQU1 050154Z 13005KT 25/19 A30 RMK A01 T02520187  RH  067%=      5-min Rain = 0
KQU1 050155Z 13009KT 25/19 A30 RMK A01 T02520187  RH  067%=      5-min Rain = 0
KQU1 050156Z 13007KT 25/19 A30 RMK A01 T02520187  RH  067%=      5-min Rain = 0
KQU1 050157Z 13007KT 25/19 A30 RMK A01 T02520187  RH  067%=      5-min Rain = 0
KQU1 050158Z 13009KT 25/19 A30 RMK A01 T02520187  RH  067%=      5-min Rain = 0
KQU1 050159Z 13009KT 25/19 A30 RMK A01 T02520187  RH  067%=      5-min Rain = 0
KQU1 050200Z 13008KT 25/19 A30 RMK A01 T02520187  RH  067%=      5-min Rain = 0
KQU1 050201Z 14006KT 25/19 A30 RMK A01 T02520187  RH  067%=      5-min Rain = 0
KQU1 050202Z 14010KT 25/19 A30 RMK A01 T02520187  RH  067%=      5-min Rain = 0
KQU1 050203Z 14007KT 25/19 A30 RMK A01 T02510187  RH  067%=      5-min Rain = 0
KQU1 050204Z 13010KT 25/19 A30 RMK A01 T02510187  RH  067%=      5-min Rain = 0
KQU1 050205Z 12008KT 25/19 A30 RMK A01 T02510187  RH  067%=      5-min Rain = 0
KQU1 050206Z 12007KT 25/19 A30 RMK A01 T02510187  RH  068%=      5-min Rain = 0
KQU1 050207Z 12007KT 25/19 A30 RMK A01 T02510187  RH  068%=      5-min Rain = 0
KQU1 050208Z 12007KT 25/19 A30 RMK A01 T02510187  RH  068%=      5-min Rain = 0
KQU1 050209Z 12008KT 25/19 A30 RMK A01 T02500187  RH  068%=      5-min Rain = 0
KQU1 050210Z 12008KT 25/19 A30 RMK A01 T02500187  RH  068%=      5-min Rain = 0
KQU1 050211Z 12008KT 25/19 A30 RMK A01 T02500187  RH  068%=      5-min Rain = 0
KQU1 050212Z 13008KT 25/19 A30 RMK A01 T02500188  RH  068%=      5-min Rain = 0
KQU1 050213Z 12007KT 25/19 A30 RMK A01 T02490188  RH  069%=      5-min Rain = 0
KQU1 050214Z 12006KT 25/19 A30 RMK A01 T02490188  RH  069%=      5-min Rain = 0
KQU1 050215Z 12007KT 25/19 A30 RMK A01 T02490188  RH  069%=      5-min Rain = 0
KQU1 050216Z 13007KT 25/19 A30 RMK A01 T02480188  RH  069%=      5-min Rain = 0
KQU1 050217Z 13006KT 25/19 A30 RMK A01 T02480188  RH  069%=      5-min Rain = 0
KQU1 050218Z 13007KT 25/19 A30 RMK A01 T02480188  RH  069%=      5-min Rain = 0
KQU1 050219Z 14005KT 25/19 A30 RMK A01 T02480188  RH  070%=      5-min Rain = 0
KQU1 050220Z 14004KT 25/19 A30 RMK A01 T02470188  RH  070%=      5-min Rain = 0
KQU1 050221Z 13004KT 25/19 A30 RMK A01 T02470188  RH  070%=      5-min Rain = 0
KQU1 050222Z 12007KT 25/19 A30 RMK A01 T02460188  RH  070%=      5-min Rain = 0
KQU1 050223Z 13004KT 25/19 A30 RMK A01 T02460189  RH  070%=      5-min Rain = 0
KQU1 050224Z 13005KT 25/19 A30 RMK A01 T02460189  RH  071%=      5-min Rain = 0
KQU1 050225Z 13003KT 25/19 A30 RMK A01 T02450189  RH  071%=      5-min Rain = 0
KQU1 050226Z 13003KT 25/19 A30 RMK A01 T02450189  RH  071%=      5-min Rain = 0
KQU1 050227Z 13004KT 25/19 A30 RMK A01 T02450189  RH  071%=      5-min Rain = 0
KQU1 050228Z 13003KT 25/19 A30 RMK A01 T02450189  RH  071%=      5-min Rain = 0
KQU1 050229Z 13003KT 24/19 A30 RMK A01 T02440189  RH  071%=      5-min Rain = 0
KQU1 050230Z 13003KT 24/19 A30 RMK A01 T02440189  RH  071%=      5-min Rain = 0
KQU1 050231Z 14004KT 24/19 A30 RMK A01 T02440189  RH  072%=      5-min Rain = 0
KQU1 050232Z 13006KT 24/19 A30 RMK A01 T02430189  RH  072%=      5-min Rain = 0
KQU1 050233Z 12006KT 24/19 A30 RMK A01 T02430188  RH  071%=      5-min Rain = 0
KQU1 050234Z 14005KT 24/19 A30 RMK A01 T02440189  RH  071%=      5-min Rain = 0
KQU1 050235Z 13005KT 24/19 A30 RMK A01 T02440189  RH  071%=      5-min Rain = 0
KQU1 050236Z 13004KT 24/19 A30 RMK A01 T02440189  RH  071%=      5-min Rain = 0
KQU1 050237Z 13004KT 24/19 A30 RMK A01 T02440189  RH  071%=      5-min Rain = 0
KQU1 050238Z 13006KT 24/19 A30 RMK A01 T02440189  RH  072%=      5-min Rain = 0
KQU1 050239Z 12005KT 24/19 A30 RMK A01 T02440189  RH  072%=      5-min Rain = 0
KQU1 050240Z 13007KT 24/19 A30 RMK A01 T02440189  RH  072%=      5-min Rain = 0
KQU1 050241Z 14006KT 24/19 A30 RMK A01 T02440189  RH  072%=      5-min Rain = 0
KQU1 050242Z 14005KT 24/19 A30 RMK A01 T02440189  RH  072%=      5-min Rain = 0
KQU1 050243Z 14005KT 24/19 A30 RMK A01 T02430189  RH  072%=      5-min Rain = 0
KQU1 050244Z 14004KT 24/19 A30 RMK A01 T02430189  RH  072%=      5-min Rain = 0
KQU1 050245Z 13004KT 24/19 A30 RMK A01 T02430190  RH  072%=      5-min Rain = 0
KQU1 050246Z 14004KT 24/19 A30 RMK A01 T02420190  RH  072%=      5-min Rain = 0
KQU1 050247Z 15004KT 24/19 A30 RMK A01 T02420190  RH  073%=      5-min Rain = 0
KQU1 050248Z 15004KT 24/19 A2999 RMK A01 T02420190  RH  073%=      5-min Rain = 0
KQU1 050249Z 15004KT 24/19 A2999 RMK A01 T02410190  RH  073%=      5-min Rain = 0
KQU1 050250Z 14004KT 24/19 A2999 RMK A01 T02410190  RH  073%=      5-min Rain = 0
KQU1 050251Z 15005KT 24/19 A2999 RMK A01 T02400190  RH  074%=      5-min Rain = 0
KQU1 050252Z 14005KT 24/19 A2999 RMK A01 T02400190  RH  074%=      5-min Rain = 0
KQU1 050253Z 15004KT 24/19 A2999 RMK A01 T02400190  RH  074%=      5-min Rain = 0
KQU1 050254Z 15004KT 24/19 A2999 RMK A01 T02400190  RH  074%=      5-min Rain = 0
KQU1 050255Z 17004KT 24/19 A2999 RMK A01 T02400190  RH  074%=      5-min Rain = 0
KQU1 050256Z 17004KT 24/19 A2999 RMK A01 T02400190  RH  074%=      5-min Rain = 0
KQU1 050257Z 16004KT 24/19 A2999 RMK A01 T02400191  RH  074%=      5-min Rain = 0
KQU1 050258Z 15004KT 24/19 A2999 RMK A01 T02400191  RH  074%=      5-min Rain = 0
KQU1 050259Z 16004KT 24/19 A2999 RMK A01 T02400191  RH  074%=      5-min Rain = 0
KQU1 050300Z 16003KT 24/19 A2999 RMK A01 T02390191  RH  074%=      5-min Rain = 0
KQU1 050301Z 16003KT 24/19 A2999 RMK A01 T02390191  RH  074%=      5-min Rain = 0
KQU1 050302Z 17004KT 24/19 A2999 RMK A01 T02390191  RH  074%=      5-min Rain = 0
KQU1 050303Z 17004KT 24/19 A2999 RMK A01 T02390191  RH  074%=      5-min Rain = 0
KQU1 050304Z 16004KT 24/19 A2999 RMK A01 T02390191  RH  074%=      5-min Rain = 0
KQU1 050305Z 16005KT 24/19 A2999 RMK A01 T02390191  RH  074%=      5-min Rain = 0
KQU1 050306Z 15005KT 24/19 A2999 RMK A01 T02390191  RH  075%=      5-min Rain = 0
KQU1 050307Z 15005KT 24/19 A2999 RMK A01 T02390191  RH  075%=      5-min Rain = 0
KQU1 050308Z 15005KT 24/19 A2999 RMK A01 T02390191  RH  075%=      5-min Rain = 0
KQU1 050309Z 15005KT 24/19 A2999 RMK A01 T02380191  RH  075%=      5-min Rain = 0
KQU1 050310Z 15005KT 24/19 A2999 RMK A01 T02380191  RH  075%=      5-min Rain = 0
KQU1 050311Z 15005KT 24/19 A2999 RMK A01 T02380191  RH  075%=      5-min Rain = 0
KQU1 050312Z 15005KT 24/19 A2999 RMK A01 T02370191  RH  075%=      5-min Rain = 0
KQU1 050313Z 15005KT 24/19 A2999 RMK A01 T02370191  RH  075%=      5-min Rain = 0
KQU1 050314Z 15004KT 24/19 A2999 RMK A01 T02360191  RH  076%=      5-min Rain = 0
KQU1 050315Z 16003KT 24/19 A2999 RMK A01 T02360191  RH  076%=      5-min Rain = 0
KQU1 050316Z 16003KT 24/19 A30 RMK A01 T02360191  RH  076%=      5-min Rain = 0
KQU1 050317Z 16003KT 24/19 A30 RMK A01 T02360191  RH  076%=      5-min Rain = 0
KQU1 050318Z 16003KT 24/19 A30 RMK A01 T02360191  RH  076%=      5-min Rain = 0
KQU1 050319Z 16002KT 24/19 A30 RMK A01 T02360191  RH  076%=      5-min Rain = 0
KQU1 050320Z 16003KT 24/19 A30 RMK A01 T02360191  RH  076%=      5-min Rain = 0
KQU1 050321Z 16003KT 24/19 A30 RMK A01 T02360190  RH  076%=      5-min Rain = 0
KQU1 050322Z 16003KT 24/19 A30 RMK A01 T02350191  RH  076%=      5-min Rain = 0
KQU1 050323Z 18003KT 24/19 A30 RMK A01 T02350191  RH  076%=      5-min Rain = 0
KQU1 050324Z 17003KT 24/19 A2999 RMK A01 T02350190  RH  076%=      5-min Rain = 0
KQU1 050325Z 18003KT 24/19 A2999 RMK A01 T02350190  RH  076%=      5-min Rain = 0
KQU1 050326Z 19003KT 24/19 A2999 RMK A01 T02350190  RH  076%=      5-min Rain = 0
KQU1 050327Z 19003KT 24/19 A2999 RMK A01 T02350190  RH  076%=      5-min Rain = 0
KQU1 050328Z 19003KT 24/19 A2999 RMK A01 T02350190  RH  076%=      5-min Rain = 0
KQU1 050329Z 19002KT 24/19 A2999 RMK A01 T02360190  RH  075%=      5-min Rain = 0
KQU1 050330Z 20002KT 24/19 A2999 RMK A01 T02360190  RH  075%=      5-min Rain = 0
KQU1 050331Z 19002KT 24/19 A2999 RMK A01 T02360190  RH  075%=      5-min Rain = 0
KQU1 050332Z 20002KT 24/19 A2999 RMK A01 T02360191  RH  076%=      5-min Rain = 0
KQU1 050333Z 20003KT 24/19 A2999 RMK A01 T02350191  RH  076%=      5-min Rain = 0
KQU1 050334Z 20003KT 23/19 A2999 RMK A01 T02340191  RH  077%=      5-min Rain = 0
KQU1 050335Z 21003KT 23/19 A30 RMK A01 T02320191  RH  078%=      5-min Rain = 0
KQU1 050336Z 21003KT 23/19 A30 RMK A01 T02310192  RH  078%=      5-min Rain = 0
KQU1 050337Z 22003KT 23/19 A30 RMK A01 T02310192  RH  079%=      5-min Rain = 0
KQU1 050338Z 21003KT 23/19 A30 RMK A01 T02300191  RH  079%=      5-min Rain = 0
KQU1 050339Z 21003KT 23/19 A30 RMK A01 T02300191  RH  079%=      5-min Rain = 0
KQU1 050340Z 21003KT 23/19 A2999 RMK A01 T02290191  RH  079%=      5-min Rain = 0
KQU1 050341Z 21003KT 23/19 A2999 RMK A01 T02290191  RH  079%=      5-min Rain = 0
KQU1 050342Z 21003KT 23/19 A2999 RMK A01 T02280191  RH  080%=      5-min Rain = 0
KQU1 050343Z 20003KT 23/19 A2999 RMK A01 T02280191  RH  080%=      5-min Rain = 0
KQU1 050344Z 20003KT 23/19 A2999 RMK A01 T02270191  RH  080%=      5-min Rain = 0
KQU1 050345Z 20003KT 23/19 A2999 RMK A01 T02270191  RH  080%=      5-min Rain = 0
KQU1 050346Z 21003KT 23/19 A2999 RMK A01 T02270191  RH  080%=      5-min Rain = 0
KQU1 050347Z 20003KT 23/19 A2999 RMK A01 T02270191  RH  080%=      5-min Rain = 0
KQU1 050348Z 20003KT 23/19 A2999 RMK A01 T02270191  RH  080%=      5-min Rain = 0
KQU1 050349Z 20003KT 23/19 A2999 RMK A01 T02270191  RH  080%=      5-min Rain = 0
KQU1 050350Z 20003KT 23/19 A2999 RMK A01 T02270191  RH  080%=      5-min Rain = 0
KQU1 050351Z 20003KT 23/19 A2999 RMK A01 T02270191  RH  080%=      5-min Rain = 0
KQU1 050352Z 20003KT 23/19 A2999 RMK A01 T02260191  RH  081%=      5-min Rain = 0
KQU1 050353Z 21003KT 23/19 A2999 RMK A01 T02260191  RH  081%=      5-min Rain = 0
KQU1 050354Z 22003KT 23/19 A2999 RMK A01 T02260192  RH  081%=      5-min Rain = 0
KQU1 050355Z 21003KT 23/19 A2999 RMK A01 T02250191  RH  081%=      5-min Rain = 0
KQU1 050356Z 21003KT 23/19 A2999 RMK A01 T02250192  RH  081%=      5-min Rain = 0
KQU1 050357Z 21003KT 23/19 A2999 RMK A01 T02250191  RH  081%=      5-min Rain = 0
KQU1 050358Z 22004KT 22/19 A2999 RMK A01 T02240191  RH  082%=      5-min Rain = 0
KQU1 050359Z 22004KT 22/19 A2999 RMK A01 T02240191  RH  082%=      5-min Rain = 0
KQU1 050400Z 23003KT 22/19 A2999 RMK A01 T02230191  RH  082%=      5-min Rain = 0
KQU1 050401Z 23003KT 22/19 A2999 RMK A01 T02230192  RH  082%=      5-min Rain = 0
KQU1 050402Z 24003KT 22/19 A2999 RMK A01 T02230192  RH  082%=      5-min Rain = 0
KQU1 050403Z 24003KT 22/19 A2999 RMK A01 T02230191  RH  082%=      5-min Rain = 0
KQU1 050404Z 24003KT 22/19 A2999 RMK A01 T02230191  RH  082%=      5-min Rain = 0
KQU1 050405Z 25002KT 22/19 A2999 RMK A01 T02230191  RH  082%=      5-min Rain = 0
KQU1 050406Z 26002KT 22/19 A2999 RMK A01 T02230191  RH  082%=      5-min Rain = 0
KQU1 050407Z 26003KT 22/19 A30 RMK A01 T02230191  RH  082%=      5-min Rain = 0
KQU1 050408Z 27003KT 22/19 A30 RMK A01 T02230191  RH  082%=      5-min Rain = 0
KQU1 050409Z 27003KT 22/19 A30 RMK A01 T02230191  RH  082%=      5-min Rain = 0
KQU1 050410Z 27003KT 22/19 A30 RMK A01 T02230192  RH  082%=      5-min Rain = 0
KQU1 050411Z 27003KT 22/19 A30 RMK A01 T02230192  RH  083%=      5-min Rain = 0
KQU1 050412Z 27003KT 22/19 A30 RMK A01 T02230192  RH  083%=      5-min Rain = 0
KQU1 050413Z 27003KT 22/19 A30 RMK A01 T02230192  RH  083%=      5-min Rain = 0
KQU1 050414Z 26003KT 22/19 A30 RMK A01 T02230192  RH  082%=      5-min Rain = 0
KQU1 050415Z 26002KT 22/19 A30 RMK A01 T02240192  RH  082%=      5-min Rain = 0
KQU1 050416Z 26002KT 22/19 A30 RMK A01 T02240192  RH  082%=      5-min Rain = 0
KQU1 050417Z 26002KT 22/19 A30 RMK A01 T02240192  RH  082%=      5-min Rain = 0
KQU1 050418Z 27002KT 22/19 A30 RMK A01 T02240192  RH  082%=      5-min Rain = 0
KQU1 050419Z 27002KT 22/19 A30 RMK A01 T02240192  RH  082%=      5-min Rain = 0
KQU1 050420Z 28002KT 22/19 A30 RMK A01 T02240192  RH  082%=      5-min Rain = 0
KQU1 050421Z 29002KT 22/19 A30 RMK A01 T02240192  RH  082%=      5-min Rain = 0
KQU1 050422Z 29002KT 23/19 A30 RMK A01 T02250193  RH  082%=      5-min Rain = 0
KQU1 050423Z 29002KT 23/19 A30 RMK A01 T02250193  RH  082%=      5-min Rain = 0
KQU1 050424Z 29002KT 23/19 A30 RMK A01 T02250193  RH  082%=      5-min Rain = 0
KQU1 050425Z 30002KT 23/19 A30 RMK A01 T02250193  RH  082%=      5-min Rain = 0
KQU1 050426Z 31002KT 23/19 A30 RMK A01 T02250194  RH  082%=      5-min Rain = 0
KQU1 050427Z 31003KT 23/19 A30 RMK A01 T02250194  RH  083%=      5-min Rain = 0
KQU1 050428Z 32002KT 23/20 A30 RMK A01 T02250195  RH  083%=      5-min Rain = 0
KQU1 050429Z 31002KT 23/20 A30 RMK A01 T02250196  RH  083%=      5-min Rain = 0
KQU1 050430Z 31003KT 23/20 A30 RMK A01 T02250195  RH  083%=      5-min Rain = 0
KQU1 050431Z 31003KT 22/19 A30 RMK A01 T02240193  RH  082%=      5-min Rain = 0
KQU1 050432Z 31003KT 22/19 A30 RMK A01 T02240192  RH  082%=      5-min Rain = 0
KQU1 050433Z 31003KT 22/19 A30 RMK A01 T02240191  RH  082%=      5-min Rain = 0
KQU1 050434Z 31002KT 22/19 A30 RMK A01 T02240191  RH  082%=      5-min Rain = 0
KQU1 050435Z 32002KT 22/19 A30 RMK A01 T02240191  RH  081%=      5-min Rain = 0
KQU1 050436Z 32002KT 22/19 A3001 RMK A01 T02240191  RH  081%=      5-min Rain = 0
KQU1 050437Z 31002KT 22/19 A3001 RMK A01 T02240190  RH  081%=      5-min Rain = 0
KQU1 050438Z 31002KT 22/19 A3001 RMK A01 T02240190  RH  081%=      5-min Rain = 0
KQU1 050439Z 30002KT 22/19 A3001 RMK A01 T02240190  RH  081%=      5-min Rain = 0
KQU1 050440Z 30003KT 22/19 A30 RMK A01 T02240190  RH  081%=      5-min Rain = 0
KQU1 050441Z 29003KT 22/19 A30 RMK A01 T02240191  RH  082%=      5-min Rain = 0
KQU1 050442Z 29003KT 22/19 A30 RMK A01 T02240191  RH  082%=      5-min Rain = 0
KQU1 050443Z 29002KT 22/19 A30 RMK A01 T02240192  RH  082%=      5-min Rain = 0
KQU1 050444Z 29003KT 22/19 A30 RMK A01 T02240193  RH  082%=      5-min Rain = 0
KQU1 050445Z 29003KT 22/19 A30 RMK A01 T02240192  RH  082%=      5-min Rain = 0
KQU1 050446Z 29003KT 22/19 A30 RMK A01 T02230192  RH  083%=      5-min Rain = 0
KQU1 050447Z 30003KT 22/19 A30 RMK A01 T02230193  RH  083%=      5-min Rain = 0
KQU1 050448Z 30003KT 22/19 A30 RMK A01 T02230193  RH  083%=      5-min Rain = 0
KQU1 050449Z 30003KT 22/19 A30 RMK A01 T02230192  RH  083%=      5-min Rain = 0
KQU1 050450Z 30003KT 22/19 A30 RMK A01 T02230192  RH  082%=      5-min Rain = 0
KQU1 050451Z 30003KT 22/19 A30 RMK A01 T02230192  RH  082%=      5-min Rain = 0
KQU1 050452Z 31003KT 22/19 A30 RMK A01 T02230192  RH  083%=      5-min Rain = 0
KQU1 050453Z 31003KT 22/19 A30 RMK A01 T02230192  RH  083%=      5-min Rain = 0
KQU1 050454Z 31003KT 22/19 A30 RMK A01 T02230193  RH  083%=      5-min Rain = 0
KQU1 050455Z 32003KT 22/19 A30 RMK A01 T02220193  RH  083%=      5-min Rain = 0
KQU1 050456Z 32003KT 22/19 A30 RMK A01 T02210192  RH  083%=      5-min Rain = 0
KQU1 050457Z 31003KT 22/19 A30 RMK A01 T02210191  RH  083%=      5-min Rain = 0
KQU1 050458Z 32003KT 22/19 A30 RMK A01 T02210191  RH  083%=      5-min Rain = 0
KQU1 050459Z 31003KT 22/19 A30 RMK A01 T02200190  RH  083%=      5-min Rain = 0

Page generated in 0.1674 seconds.